<?xml version='1.0' encoding='UTF-8'?><gpx version="1.1" creator="JPX - https://github.com/jenetics/jpx" xmlns="http://www.topografix.com/GPX/1/1"><trk><trkseg><trkpt lat="46.5627584" lon="12.5803135"><ele>942.0</ele><time>2026-04-22T18:36:08.348Z</time></trkpt><trkpt lat="46.562695" lon="12.5803589"><ele>942.0</ele><time>2026-04-22T18:36:12.349Z</time></trkpt><trkpt lat="46.562624" lon="12.5803483"><ele>942.0</ele><time>2026-04-22T18:36:15.355Z</time></trkpt><trkpt lat="46.5626009" lon="12.5802603"><ele>942.0</ele><time>2026-04-22T18:36:17.362Z</time></trkpt><trkpt lat="46.5625968" lon="12.5801262"><ele>942.0</ele><time>2026-04-22T18:36:19.35Z</time></trkpt><trkpt lat="46.5625994" lon="12.5799584"><ele>942.0</ele><time>2026-04-22T18:36:21.349Z</time></trkpt><trkpt lat="46.5626086" lon="12.579849"><ele>942.0</ele><time>2026-04-22T18:36:22.356Z</time></trkpt><trkpt lat="46.562637" lon="12.5797067"><ele>942.0</ele><time>2026-04-22T18:36:24.35Z</time></trkpt><trkpt lat="46.5627199" lon="12.5795708"><ele>942.0</ele><time>2026-04-22T18:36:26.35Z</time></trkpt><trkpt lat="46.5627729" lon="12.5795066"><ele>942.0</ele><time>2026-04-22T18:36:27.363Z</time></trkpt><trkpt lat="46.5628251" lon="12.5794434"><ele>942.0</ele><time>2026-04-22T18:36:28.354Z</time></trkpt><trkpt lat="46.5628666" lon="12.5793715"><ele>942.0</ele><time>2026-04-22T18:36:29.362Z</time></trkpt><trkpt lat="46.5631709" lon="12.5749151"><ele>942.0</ele><time>2026-04-22T18:37:30.998Z</time></trkpt><trkpt lat="46.5630626" lon="12.5748416"><ele>942.0</ele><time>2026-04-22T18:37:55.001Z</time></trkpt><trkpt lat="46.5630262" lon="12.5747546"><ele>942.0</ele><time>2026-04-22T18:37:56.004Z</time></trkpt><trkpt lat="46.5629804" lon="12.5746786"><ele>942.0</ele><time>2026-04-22T18:37:57.004Z</time></trkpt><trkpt lat="46.5629252" lon="12.5745895"><ele>942.0</ele><time>2026-04-22T18:37:58.001Z</time></trkpt><trkpt lat="46.5628667" lon="12.5744866"><ele>942.0</ele><time>2026-04-22T18:37:59.007Z</time></trkpt><trkpt lat="46.562805" lon="12.5743851"><ele>943.8</ele><time>2026-04-22T18:38:00.007Z</time></trkpt><trkpt lat="46.5627589" lon="12.5742777"><ele>945.6</ele><time>2026-04-22T18:38:01.002Z</time></trkpt><trkpt lat="46.5627043" lon="12.5741674"><ele>947.3999999999999</ele><time>2026-04-22T18:38:01.998Z</time></trkpt><trkpt lat="46.5626446" lon="12.5740541"><ele>949.1999999999999</ele><time>2026-04-22T18:38:03.001Z</time></trkpt><trkpt lat="46.5625917" lon="12.5739447"><ele>951.0</ele><time>2026-04-22T18:38:04.002Z</time></trkpt><trkpt lat="46.5625256" lon="12.5738379"><ele>951.0</ele><time>2026-04-22T18:38:05.003Z</time></trkpt><trkpt lat="46.5624624" lon="12.5737203"><ele>951.0</ele><time>2026-04-22T18:38:06.002Z</time></trkpt><trkpt lat="46.5623836" lon="12.5735955"><ele>951.0</ele><time>2026-04-22T18:38:07.012Z</time></trkpt><trkpt lat="46.5623074" lon="12.5734601"><ele>951.0</ele><time>2026-04-22T18:38:08.004Z</time></trkpt><trkpt lat="46.5622267" lon="12.5733179"><ele>950.5</ele><time>2026-04-22T18:38:09.009Z</time></trkpt><trkpt lat="46.5621564" lon="12.5731676"><ele>950.0</ele><time>2026-04-22T18:38:10.007Z</time></trkpt><trkpt lat="46.5620832" lon="12.5730173"><ele>949.5</ele><time>2026-04-22T18:38:11.005Z</time></trkpt><trkpt lat="46.5620103" lon="12.5728604"><ele>949.0</ele><time>2026-04-22T18:38:12.002Z</time></trkpt><trkpt lat="46.5619361" lon="12.5727073"><ele>949.0</ele><time>2026-04-22T18:38:13.001Z</time></trkpt><trkpt lat="46.5618538" lon="12.5725469"><ele>949.0</ele><time>2026-04-22T18:38:14.005Z</time></trkpt><trkpt lat="46.561775" lon="12.5723862"><ele>949.0</ele><time>2026-04-22T18:38:15.006Z</time></trkpt><trkpt lat="46.561696" lon="12.5722209"><ele>949.0</ele><time>2026-04-22T18:38:16.01Z</time></trkpt><trkpt lat="46.5616106" lon="12.572062"><ele>944.75</ele><time>2026-04-22T18:38:16.997Z</time></trkpt><trkpt lat="46.561527" lon="12.571919"><ele>940.5</ele><time>2026-04-22T18:38:18Z</time></trkpt><trkpt lat="46.5614523" lon="12.571782"><ele>936.25</ele><time>2026-04-22T18:38:19.004Z</time></trkpt><trkpt lat="46.5613831" lon="12.5716606"><ele>932.0</ele><time>2026-04-22T18:38:19.998Z</time></trkpt><trkpt lat="46.5613062" lon="12.5715458"><ele>932.0</ele><time>2026-04-22T18:38:21.004Z</time></trkpt><trkpt lat="46.5612346" lon="12.571452"><ele>932.0</ele><time>2026-04-22T18:38:22.004Z</time></trkpt><trkpt lat="46.5611687" lon="12.5713538"><ele>932.0</ele><time>2026-04-22T18:38:23.006Z</time></trkpt><trkpt lat="46.5611074" lon="12.5712483"><ele>932.0</ele><time>2026-04-22T18:38:24.004Z</time></trkpt><trkpt lat="46.5610398" lon="12.571133"><ele>932.0</ele><time>2026-04-22T18:38:25.005Z</time></trkpt><trkpt lat="46.5609758" lon="12.5710016"><ele>936.2</ele><time>2026-04-22T18:38:26.008Z</time></trkpt><trkpt lat="46.560924" lon="12.5708674"><ele>940.4000000000001</ele><time>2026-04-22T18:38:27.006Z</time></trkpt><trkpt lat="46.5608853" lon="12.5707382"><ele>944.5999999999999</ele><time>2026-04-22T18:38:28.005Z</time></trkpt><trkpt lat="46.560855" lon="12.5706149"><ele>948.8</ele><time>2026-04-22T18:38:29.009Z</time></trkpt><trkpt lat="46.5608286" lon="12.5705028"><ele>953.0</ele><time>2026-04-22T18:38:30.001Z</time></trkpt><trkpt lat="46.5608029" lon="12.5703787"><ele>950.75</ele><time>2026-04-22T18:38:30.999Z</time></trkpt><trkpt lat="46.560775" lon="12.5702491"><ele>948.5</ele><time>2026-04-22T18:38:31.996Z</time></trkpt><trkpt lat="46.5607382" lon="12.5701018"><ele>946.25</ele><time>2026-04-22T18:38:33.002Z</time></trkpt><trkpt lat="46.5607138" lon="12.5699251"><ele>944.0</ele><time>2026-04-22T18:38:34.001Z</time></trkpt><trkpt lat="46.5606973" lon="12.5697326"><ele>944.0</ele><time>2026-04-22T18:38:35.005Z</time></trkpt><trkpt lat="46.5606825" lon="12.5695402"><ele>944.0</ele><time>2026-04-22T18:38:36.003Z</time></trkpt><trkpt lat="46.5606752" lon="12.5693463"><ele>944.0</ele><time>2026-04-22T18:38:36.999Z</time></trkpt><trkpt lat="46.5606677" lon="12.5691529"><ele>944.0</ele><time>2026-04-22T18:38:38.001Z</time></trkpt><trkpt lat="46.5606556" lon="12.5689699"><ele>940.5</ele><time>2026-04-22T18:38:39.01Z</time></trkpt><trkpt lat="46.5606321" lon="12.5687967"><ele>937.0</ele><time>2026-04-22T18:38:40Z</time></trkpt><trkpt lat="46.5606121" lon="12.5686314"><ele>933.5</ele><time>2026-04-22T18:38:41.011Z</time></trkpt><trkpt lat="46.5605807" lon="12.568462"><ele>930.0</ele><time>2026-04-22T18:38:42Z</time></trkpt><trkpt lat="46.5605514" lon="12.5682845"><ele>928.75</ele><time>2026-04-22T18:38:43.003Z</time></trkpt><trkpt lat="46.5605173" lon="12.568114"><ele>927.5</ele><time>2026-04-22T18:38:44Z</time></trkpt><trkpt lat="46.5604807" lon="12.5679373"><ele>926.25</ele><time>2026-04-22T18:38:45.004Z</time></trkpt><trkpt lat="46.5604383" lon="12.5677619"><ele>925.0</ele><time>2026-04-22T18:38:46.001Z</time></trkpt><trkpt lat="46.5603842" lon="12.5675987"><ele>927.0</ele><time>2026-04-22T18:38:47.001Z</time></trkpt><trkpt lat="46.5603193" lon="12.5674409"><ele>929.0</ele><time>2026-04-22T18:38:48.008Z</time></trkpt><trkpt lat="46.5602678" lon="12.5672837"><ele>931.0</ele><time>2026-04-22T18:38:49.002Z</time></trkpt><trkpt lat="46.5602181" lon="12.5671339"><ele>933.0</ele><time>2026-04-22T18:38:50.004Z</time></trkpt><trkpt lat="46.5601777" lon="12.5669804"><ele>933.0</ele><time>2026-04-22T18:38:50.999Z</time></trkpt><trkpt lat="46.5601441" lon="12.5668137"><ele>933.0</ele><time>2026-04-22T18:38:52.001Z</time></trkpt><trkpt lat="46.5601188" lon="12.5666222"><ele>933.0</ele><time>2026-04-22T18:38:53.004Z</time></trkpt><trkpt lat="46.5601018" lon="12.5664303"><ele>933.0</ele><time>2026-04-22T18:38:54.004Z</time></trkpt><trkpt lat="46.5600798" lon="12.5662276"><ele>931.25</ele><time>2026-04-22T18:38:55.003Z</time></trkpt><trkpt lat="46.5600487" lon="12.566031"><ele>929.5</ele><time>2026-04-22T18:38:56.007Z</time></trkpt><trkpt lat="46.5600149" lon="12.5658373"><ele>927.75</ele><time>2026-04-22T18:38:57.001Z</time></trkpt><trkpt lat="46.5599699" lon="12.5656353"><ele>926.0</ele><time>2026-04-22T18:38:58.001Z</time></trkpt><trkpt lat="46.5599224" lon="12.5654333"><ele>924.5</ele><time>2026-04-22T18:38:59.004Z</time></trkpt><trkpt lat="46.5598736" lon="12.5652351"><ele>923.0</ele><time>2026-04-22T18:39:00.009Z</time></trkpt><trkpt lat="46.5598278" lon="12.565037"><ele>921.5</ele><time>2026-04-22T18:39:00.997Z</time></trkpt><trkpt lat="46.5597757" lon="12.5648337"><ele>920.0</ele><time>2026-04-22T18:39:02.007Z</time></trkpt><trkpt lat="46.5597224" lon="12.5646314"><ele>920.0</ele><time>2026-04-22T18:39:03.003Z</time></trkpt><trkpt lat="46.5596662" lon="12.5644343"><ele>920.0</ele><time>2026-04-22T18:39:04.005Z</time></trkpt><trkpt lat="46.559616" lon="12.5642461"><ele>920.0</ele><time>2026-04-22T18:39:05.001Z</time></trkpt><trkpt lat="46.5595645" lon="12.5640605"><ele>920.0</ele><time>2026-04-22T18:39:06.001Z</time></trkpt><trkpt lat="46.5595174" lon="12.5638726"><ele>921.75</ele><time>2026-04-22T18:39:07.003Z</time></trkpt><trkpt lat="46.5594704" lon="12.5636891"><ele>923.5</ele><time>2026-04-22T18:39:08.006Z</time></trkpt><trkpt lat="46.5594281" lon="12.5634965"><ele>925.25</ele><time>2026-04-22T18:39:09.002Z</time></trkpt><trkpt lat="46.559387" lon="12.5633045"><ele>927.0</ele><time>2026-04-22T18:39:10.003Z</time></trkpt><trkpt lat="46.559352" lon="12.5631188"><ele>927.0</ele><time>2026-04-22T18:39:11.006Z</time></trkpt><trkpt lat="46.5593262" lon="12.5629395"><ele>927.0</ele><time>2026-04-22T18:39:12.008Z</time></trkpt><trkpt lat="46.5593074" lon="12.5627679"><ele>927.0</ele><time>2026-04-22T18:39:13.003Z</time></trkpt><trkpt lat="46.5592844" lon="12.5625946"><ele>927.0</ele><time>2026-04-22T18:39:14.003Z</time></trkpt><trkpt lat="46.5592777" lon="12.5624066"><ele>926.25</ele><time>2026-04-22T18:39:15.006Z</time></trkpt><trkpt lat="46.5592879" lon="12.56222"><ele>925.5</ele><time>2026-04-22T18:39:16.001Z</time></trkpt><trkpt lat="46.5593034" lon="12.5620294"><ele>924.75</ele><time>2026-04-22T18:39:17.004Z</time></trkpt><trkpt lat="46.5593134" lon="12.5618305"><ele>924.0</ele><time>2026-04-22T18:39:18.004Z</time></trkpt><trkpt lat="46.5593137" lon="12.5616312"><ele>922.5</ele><time>2026-04-22T18:39:19.002Z</time></trkpt><trkpt lat="46.5592997" lon="12.5614345"><ele>921.0</ele><time>2026-04-22T18:39:20.006Z</time></trkpt><trkpt lat="46.5592761" lon="12.5612395"><ele>919.5</ele><time>2026-04-22T18:39:21.005Z</time></trkpt><trkpt lat="46.5592495" lon="12.5610348"><ele>918.0</ele><time>2026-04-22T18:39:22.002Z</time></trkpt><trkpt lat="46.5592174" lon="12.5608311"><ele>917.25</ele><time>2026-04-22T18:39:23.005Z</time></trkpt><trkpt lat="46.5591767" lon="12.5606308"><ele>916.5</ele><time>2026-04-22T18:39:23.999Z</time></trkpt><trkpt lat="46.5591411" lon="12.5604434"><ele>915.75</ele><time>2026-04-22T18:39:25.003Z</time></trkpt><trkpt lat="46.5591024" lon="12.5602755"><ele>915.0</ele><time>2026-04-22T18:39:26.005Z</time></trkpt><trkpt lat="46.5590546" lon="12.5601039"><ele>915.0</ele><time>2026-04-22T18:39:27.012Z</time></trkpt><trkpt lat="46.5589969" lon="12.5599231"><ele>915.0</ele><time>2026-04-22T18:39:28.005Z</time></trkpt><trkpt lat="46.55894" lon="12.559743"><ele>915.0</ele><time>2026-04-22T18:39:29.009Z</time></trkpt><trkpt lat="46.558882" lon="12.5595669"><ele>915.0</ele><time>2026-04-22T18:39:29.998Z</time></trkpt><trkpt lat="46.5588244" lon="12.5593974"><ele>914.75</ele><time>2026-04-22T18:39:30.999Z</time></trkpt><trkpt lat="46.558781" lon="12.5592239"><ele>914.5</ele><time>2026-04-22T18:39:32.005Z</time></trkpt><trkpt lat="46.5587508" lon="12.5590353"><ele>914.25</ele><time>2026-04-22T18:39:33.002Z</time></trkpt><trkpt lat="46.5587279" lon="12.5588335"><ele>914.0</ele><time>2026-04-22T18:39:34.011Z</time></trkpt><trkpt lat="46.558714" lon="12.5586085"><ele>915.0</ele><time>2026-04-22T18:39:35.003Z</time></trkpt><trkpt lat="46.5587006" lon="12.5583992"><ele>916.0</ele><time>2026-04-22T18:39:36.001Z</time></trkpt><trkpt lat="46.558687" lon="12.5582013"><ele>917.0</ele><time>2026-04-22T18:39:37.007Z</time></trkpt><trkpt lat="46.5586734" lon="12.5580183"><ele>918.0</ele><time>2026-04-22T18:39:38.001Z</time></trkpt><trkpt lat="46.5586649" lon="12.557843"><ele>918.2</ele><time>2026-04-22T18:39:39.012Z</time></trkpt><trkpt lat="46.5586563" lon="12.5576778"><ele>918.4</ele><time>2026-04-22T18:39:40.004Z</time></trkpt><trkpt lat="46.5586589" lon="12.5575301"><ele>918.6000000000001</ele><time>2026-04-22T18:39:41.013Z</time></trkpt><trkpt lat="46.5586522" lon="12.5574161"><ele>918.8000000000001</ele><time>2026-04-22T18:39:42.006Z</time></trkpt><trkpt lat="46.5586224" lon="12.5572771"><ele>919.0</ele><time>2026-04-22T18:39:44.013Z</time></trkpt><trkpt lat="46.5585436" lon="12.5571924"><ele>919.0</ele><time>2026-04-22T18:39:47.003Z</time></trkpt><trkpt lat="46.5584328" lon="12.5570731"><ele>919.0000000000001</ele><time>2026-04-22T18:39:49.015Z</time></trkpt><trkpt lat="46.5583745" lon="12.5569769"><ele>919.0000000000001</ele><time>2026-04-22T18:39:50.006Z</time></trkpt><trkpt lat="46.5583207" lon="12.556869"><ele>919.0</ele><time>2026-04-22T18:39:51.003Z</time></trkpt><trkpt lat="46.5582562" lon="12.5567457"><ele>919.0</ele><time>2026-04-22T18:39:52.001Z</time></trkpt><trkpt lat="46.5581901" lon="12.5566256"><ele>917.4000000000001</ele><time>2026-04-22T18:39:53.002Z</time></trkpt><trkpt lat="46.5581289" lon="12.5565053"><ele>915.8000000000001</ele><time>2026-04-22T18:39:54Z</time></trkpt><trkpt lat="46.5580601" lon="12.5563826"><ele>914.1999999999999</ele><time>2026-04-22T18:39:55.009Z</time></trkpt><trkpt lat="46.5579975" lon="12.5562432"><ele>912.5999999999999</ele><time>2026-04-22T18:39:56.011Z</time></trkpt><trkpt lat="46.5579302" lon="12.5561014"><ele>911.0</ele><time>2026-04-22T18:39:57.005Z</time></trkpt><trkpt lat="46.5578538" lon="12.5559753"><ele>910.25</ele><time>2026-04-22T18:39:58.018Z</time></trkpt><trkpt lat="46.5577719" lon="12.5558554"><ele>909.5</ele><time>2026-04-22T18:39:59.006Z</time></trkpt><trkpt lat="46.5576921" lon="12.5557286"><ele>908.75</ele><time>2026-04-22T18:40:00.004Z</time></trkpt><trkpt lat="46.5576071" lon="12.5556057"><ele>908.0</ele><time>2026-04-22T18:40:01.009Z</time></trkpt><trkpt lat="46.5575126" lon="12.555477"><ele>907.75</ele><time>2026-04-22T18:40:02.008Z</time></trkpt><trkpt lat="46.5574204" lon="12.5553642"><ele>907.5</ele><time>2026-04-22T18:40:03.007Z</time></trkpt><trkpt lat="46.557342" lon="12.5552678"><ele>907.25</ele><time>2026-04-22T18:40:04.009Z</time></trkpt><trkpt lat="46.5572553" lon="12.5551562"><ele>907.0</ele><time>2026-04-22T18:40:05.008Z</time></trkpt><trkpt lat="46.5571663" lon="12.5550406"><ele>907.0</ele><time>2026-04-22T18:40:06.007Z</time></trkpt><trkpt lat="46.557074" lon="12.5549206"><ele>907.0</ele><time>2026-04-22T18:40:07.009Z</time></trkpt><trkpt lat="46.5569908" lon="12.5548037"><ele>907.0</ele><time>2026-04-22T18:40:08.005Z</time></trkpt><trkpt lat="46.5569067" lon="12.5546893"><ele>907.0</ele><time>2026-04-22T18:40:09.012Z</time></trkpt><trkpt lat="46.5568277" lon="12.5545679"><ele>907.0</ele><time>2026-04-22T18:40:10.007Z</time></trkpt><trkpt lat="46.5567517" lon="12.5544453"><ele>907.0</ele><time>2026-04-22T18:40:11.007Z</time></trkpt><trkpt lat="46.5566661" lon="12.5543228"><ele>907.0</ele><time>2026-04-22T18:40:12.007Z</time></trkpt><trkpt lat="46.5565775" lon="12.554207"><ele>907.0</ele><time>2026-04-22T18:40:13.005Z</time></trkpt><trkpt lat="46.5564875" lon="12.5540827"><ele>907.0</ele><time>2026-04-22T18:40:14.002Z</time></trkpt><trkpt lat="46.5563991" lon="12.5539609"><ele>907.0</ele><time>2026-04-22T18:40:15.012Z</time></trkpt><trkpt lat="46.5563129" lon="12.5538338"><ele>907.0</ele><time>2026-04-22T18:40:16.005Z</time></trkpt><trkpt lat="46.5562439" lon="12.5537073"><ele>907.0</ele><time>2026-04-22T18:40:17Z</time></trkpt><trkpt lat="46.556178" lon="12.5535789"><ele>907.0</ele><time>2026-04-22T18:40:18.006Z</time></trkpt><trkpt lat="46.5561113" lon="12.5534455"><ele>907.0</ele><time>2026-04-22T18:40:19.007Z</time></trkpt><trkpt lat="46.5560541" lon="12.553309"><ele>907.0</ele><time>2026-04-22T18:40:20.005Z</time></trkpt><trkpt lat="46.5560021" lon="12.5531694"><ele>907.0</ele><time>2026-04-22T18:40:21.002Z</time></trkpt><trkpt lat="46.5559502" lon="12.5530321"><ele>907.0</ele><time>2026-04-22T18:40:22.005Z</time></trkpt><trkpt lat="46.5558917" lon="12.5528907"><ele>905.75</ele><time>2026-04-22T18:40:23.002Z</time></trkpt><trkpt lat="46.5558298" lon="12.552743"><ele>904.5</ele><time>2026-04-22T18:40:24.011Z</time></trkpt><trkpt lat="46.5557622" lon="12.5525994"><ele>903.25</ele><time>2026-04-22T18:40:25Z</time></trkpt><trkpt lat="46.555686" lon="12.5524556"><ele>902.0</ele><time>2026-04-22T18:40:26.004Z</time></trkpt><trkpt lat="46.5556074" lon="12.5523179"><ele>902.0</ele><time>2026-04-22T18:40:27.001Z</time></trkpt><trkpt lat="46.5555252" lon="12.5521717"><ele>902.0</ele><time>2026-04-22T18:40:28.006Z</time></trkpt><trkpt lat="46.5554474" lon="12.5520359"><ele>902.0</ele><time>2026-04-22T18:40:29.011Z</time></trkpt><trkpt lat="46.5553813" lon="12.5519122"><ele>902.0</ele><time>2026-04-22T18:40:30.003Z</time></trkpt><trkpt lat="46.5553144" lon="12.551793"><ele>902.25</ele><time>2026-04-22T18:40:31.017Z</time></trkpt><trkpt lat="46.555246" lon="12.5516735"><ele>902.5</ele><time>2026-04-22T18:40:32.011Z</time></trkpt><trkpt lat="46.5551649" lon="12.5515479"><ele>902.75</ele><time>2026-04-22T18:40:33.005Z</time></trkpt><trkpt lat="46.5550761" lon="12.5514358"><ele>903.0</ele><time>2026-04-22T18:40:34.003Z</time></trkpt><trkpt lat="46.5549746" lon="12.5513233"><ele>903.0</ele><time>2026-04-22T18:40:35.012Z</time></trkpt><trkpt lat="46.5548752" lon="12.5512186"><ele>903.0</ele><time>2026-04-22T18:40:36.005Z</time></trkpt><trkpt lat="46.5547833" lon="12.5511295"><ele>903.0</ele><time>2026-04-22T18:40:37.004Z</time></trkpt><trkpt lat="46.5546973" lon="12.5510345"><ele>903.0</ele><time>2026-04-22T18:40:38.007Z</time></trkpt><trkpt lat="46.5546077" lon="12.5509483"><ele>903.0</ele><time>2026-04-22T18:40:39.008Z</time></trkpt><trkpt lat="46.5545223" lon="12.5508544"><ele>903.5</ele><time>2026-04-22T18:40:40.003Z</time></trkpt><trkpt lat="46.5544483" lon="12.5507798"><ele>904.0</ele><time>2026-04-22T18:40:41.021Z</time></trkpt><trkpt lat="46.5543853" lon="12.5507125"><ele>904.5</ele><time>2026-04-22T18:40:42.002Z</time></trkpt><trkpt lat="46.5543363" lon="12.550636"><ele>905.0</ele><time>2026-04-22T18:40:43.007Z</time></trkpt><trkpt lat="46.5542791" lon="12.5505166"><ele>905.5</ele><time>2026-04-22T18:40:45.009Z</time></trkpt><trkpt lat="46.554231" lon="12.5504091"><ele>906.0</ele><time>2026-04-22T18:40:47.013Z</time></trkpt><trkpt lat="46.5541768" lon="12.550347"><ele>904.8</ele><time>2026-04-22T18:40:48.005Z</time></trkpt><trkpt lat="46.5541047" lon="12.55029"><ele>903.5999999999999</ele><time>2026-04-22T18:40:49.008Z</time></trkpt><trkpt lat="46.5540262" lon="12.5502159"><ele>902.4</ele><time>2026-04-22T18:40:50.005Z</time></trkpt><trkpt lat="46.5539319" lon="12.5501266"><ele>901.2</ele><time>2026-04-22T18:40:51.009Z</time></trkpt><trkpt lat="46.5538304" lon="12.5500148"><ele>900.0</ele><time>2026-04-22T18:40:52.005Z</time></trkpt><trkpt lat="46.5537145" lon="12.5498805"><ele>899.3333333333333</ele><time>2026-04-22T18:40:53.01Z</time></trkpt><trkpt lat="46.5535973" lon="12.5497385"><ele>898.6666666666666</ele><time>2026-04-22T18:40:54.006Z</time></trkpt><trkpt lat="46.5534784" lon="12.549599"><ele>898.0</ele><time>2026-04-22T18:40:55.011Z</time></trkpt><trkpt lat="46.5533498" lon="12.5494513"><ele>898.0</ele><time>2026-04-22T18:40:56.004Z</time></trkpt><trkpt lat="46.5532134" lon="12.5492979"><ele>898.0</ele><time>2026-04-22T18:40:57.008Z</time></trkpt><trkpt lat="46.5530843" lon="12.5491439"><ele>898.0</ele><time>2026-04-22T18:40:58.006Z</time></trkpt><trkpt lat="46.5529533" lon="12.5489867"><ele>899.3333333333333</ele><time>2026-04-22T18:40:59.006Z</time></trkpt><trkpt lat="46.5528364" lon="12.5488181"><ele>900.6666666666667</ele><time>2026-04-22T18:41:00.008Z</time></trkpt><trkpt lat="46.5527376" lon="12.5486475"><ele>902.0</ele><time>2026-04-22T18:41:01.006Z</time></trkpt><trkpt lat="46.5526497" lon="12.5484671"><ele>902.0</ele><time>2026-04-22T18:41:02.006Z</time></trkpt><trkpt lat="46.5525607" lon="12.5482768"><ele>902.0</ele><time>2026-04-22T18:41:03.001Z</time></trkpt><trkpt lat="46.5524794" lon="12.5480779"><ele>902.0</ele><time>2026-04-22T18:41:04.006Z</time></trkpt><trkpt lat="46.5523959" lon="12.5478732"><ele>900.0</ele><time>2026-04-22T18:41:05.014Z</time></trkpt><trkpt lat="46.552314" lon="12.547665"><ele>898.0</ele><time>2026-04-22T18:41:06.011Z</time></trkpt><trkpt lat="46.5522309" lon="12.5474537"><ele>896.0</ele><time>2026-04-22T18:41:07.006Z</time></trkpt><trkpt lat="46.5521461" lon="12.5472418"><ele>895.0</ele><time>2026-04-22T18:41:08.005Z</time></trkpt><trkpt lat="46.5520609" lon="12.547035"><ele>894.0</ele><time>2026-04-22T18:41:09.006Z</time></trkpt><trkpt lat="46.5519805" lon="12.5468274"><ele>893.0</ele><time>2026-04-22T18:41:10.006Z</time></trkpt><trkpt lat="46.5519085" lon="12.5466351"><ele>896.0</ele><time>2026-04-22T18:41:11.009Z</time></trkpt><trkpt lat="46.5518464" lon="12.5464623"><ele>899.0</ele><time>2026-04-22T18:41:12.011Z</time></trkpt><trkpt lat="46.5517856" lon="12.5462964"><ele>902.0</ele><time>2026-04-22T18:41:13.007Z</time></trkpt><trkpt lat="46.5517387" lon="12.546124"><ele>905.0</ele><time>2026-04-22T18:41:14.003Z</time></trkpt><trkpt lat="46.5517107" lon="12.5459319"><ele>905.0</ele><time>2026-04-22T18:41:15Z</time></trkpt><trkpt lat="46.5517015" lon="12.5457271"><ele>905.0</ele><time>2026-04-22T18:41:16.013Z</time></trkpt><trkpt lat="46.551706" lon="12.5455153"><ele>905.0</ele><time>2026-04-22T18:41:17.012Z</time></trkpt><trkpt lat="46.551723" lon="12.5453003"><ele>905.0</ele><time>2026-04-22T18:41:18.004Z</time></trkpt><trkpt lat="46.551738" lon="12.545084"><ele>904.3333333333334</ele><time>2026-04-22T18:41:19.006Z</time></trkpt><trkpt lat="46.5517504" lon="12.5448664"><ele>903.6666666666667</ele><time>2026-04-22T18:41:20.008Z</time></trkpt><trkpt lat="46.5517618" lon="12.5446466"><ele>903.0</ele><time>2026-04-22T18:41:21.016Z</time></trkpt><trkpt lat="46.551771" lon="12.5444289"><ele>901.6666666666667</ele><time>2026-04-22T18:41:22.009Z</time></trkpt><trkpt lat="46.5517809" lon="12.5442121"><ele>900.3333333333334</ele><time>2026-04-22T18:41:23.006Z</time></trkpt><trkpt lat="46.5517872" lon="12.5439896"><ele>899.0</ele><time>2026-04-22T18:41:24.007Z</time></trkpt><trkpt lat="46.5517965" lon="12.5437652"><ele>898.75</ele><time>2026-04-22T18:41:25.008Z</time></trkpt><trkpt lat="46.5518106" lon="12.5435501"><ele>898.5</ele><time>2026-04-22T18:41:26.008Z</time></trkpt><trkpt lat="46.5518218" lon="12.5433408"><ele>898.25</ele><time>2026-04-22T18:41:27.004Z</time></trkpt><trkpt lat="46.5518367" lon="12.5431526"><ele>898.0</ele><time>2026-04-22T18:41:28.009Z</time></trkpt><trkpt lat="46.5518603" lon="12.5429744"><ele>896.5</ele><time>2026-04-22T18:41:29.006Z</time></trkpt><trkpt lat="46.5518942" lon="12.5427973"><ele>895.0</ele><time>2026-04-22T18:41:30.006Z</time></trkpt><trkpt lat="46.5519313" lon="12.5426232"><ele>893.5</ele><time>2026-04-22T18:41:31Z</time></trkpt><trkpt lat="46.5519942" lon="12.5424609"><ele>892.0</ele><time>2026-04-22T18:41:32.003Z</time></trkpt><trkpt lat="46.5520646" lon="12.5423072"><ele>892.0</ele><time>2026-04-22T18:41:33.008Z</time></trkpt><trkpt lat="46.5521469" lon="12.5421514"><ele>892.0</ele><time>2026-04-22T18:41:34.008Z</time></trkpt><trkpt lat="46.5522341" lon="12.5419988"><ele>892.0</ele><time>2026-04-22T18:41:35.002Z</time></trkpt><trkpt lat="46.5523303" lon="12.5418437"><ele>892.0</ele><time>2026-04-22T18:41:36.013Z</time></trkpt><trkpt lat="46.5524264" lon="12.5416872"><ele>898.6666666666666</ele><time>2026-04-22T18:41:37.001Z</time></trkpt><trkpt lat="46.5525262" lon="12.5415221"><ele>905.3333333333333</ele><time>2026-04-22T18:41:38.004Z</time></trkpt><trkpt lat="46.5526248" lon="12.5413548"><ele>912.0</ele><time>2026-04-22T18:41:39.008Z</time></trkpt><trkpt lat="46.5527327" lon="12.5411845"><ele>908.5</ele><time>2026-04-22T18:41:40.01Z</time></trkpt><trkpt lat="46.5528396" lon="12.5410369"><ele>905.0</ele><time>2026-04-22T18:41:41.002Z</time></trkpt><trkpt lat="46.5529571" lon="12.5408918"><ele>901.5</ele><time>2026-04-22T18:41:42.008Z</time></trkpt><trkpt lat="46.5530673" lon="12.5407589"><ele>898.0</ele><time>2026-04-22T18:41:43.001Z</time></trkpt><trkpt lat="46.5531667" lon="12.5406229"><ele>898.0</ele><time>2026-04-22T18:41:44.004Z</time></trkpt><trkpt lat="46.5532503" lon="12.5404673"><ele>898.0</ele><time>2026-04-22T18:41:45.005Z</time></trkpt><trkpt lat="46.5533153" lon="12.5402917"><ele>898.0</ele><time>2026-04-22T18:41:46.005Z</time></trkpt><trkpt lat="46.5533602" lon="12.5400949"><ele>898.0</ele><time>2026-04-22T18:41:47.001Z</time></trkpt><trkpt lat="46.5533903" lon="12.5398793"><ele>900.0</ele><time>2026-04-22T18:41:48.003Z</time></trkpt><trkpt lat="46.5534127" lon="12.53967"><ele>902.0</ele><time>2026-04-22T18:41:49.004Z</time></trkpt><trkpt lat="46.5534228" lon="12.5394525"><ele>904.0</ele><time>2026-04-22T18:41:50.006Z</time></trkpt><trkpt lat="46.5534283" lon="12.5392245"><ele>902.6666666666666</ele><time>2026-04-22T18:41:51.001Z</time></trkpt><trkpt lat="46.5534182" lon="12.5390018"><ele>901.3333333333333</ele><time>2026-04-22T18:41:52.003Z</time></trkpt><trkpt lat="46.5533933" lon="12.538774"><ele>900.0</ele><time>2026-04-22T18:41:53.006Z</time></trkpt><trkpt lat="46.5533493" lon="12.5385477"><ele>900.0</ele><time>2026-04-22T18:41:53.997Z</time></trkpt><trkpt lat="46.5532972" lon="12.5383237"><ele>900.0</ele><time>2026-04-22T18:41:55.006Z</time></trkpt><trkpt lat="46.5532365" lon="12.5380977"><ele>900.0</ele><time>2026-04-22T18:41:55.999Z</time></trkpt><trkpt lat="46.5531692" lon="12.5378761"><ele>898.3333333333333</ele><time>2026-04-22T18:41:57.005Z</time></trkpt><trkpt lat="46.5530977" lon="12.5376475"><ele>896.6666666666666</ele><time>2026-04-22T18:41:58.005Z</time></trkpt><trkpt lat="46.5530304" lon="12.5374122"><ele>895.0</ele><time>2026-04-22T18:41:59.002Z</time></trkpt><trkpt lat="46.5529621" lon="12.5371714"><ele>896.6666666666666</ele><time>2026-04-22T18:42:00.003Z</time></trkpt><trkpt lat="46.5529005" lon="12.5369413"><ele>898.3333333333333</ele><time>2026-04-22T18:42:01.013Z</time></trkpt><trkpt lat="46.552846" lon="12.5367262"><ele>900.0</ele><time>2026-04-22T18:42:02.002Z</time></trkpt><trkpt lat="46.5527932" lon="12.5365164"><ele>900.0</ele><time>2026-04-22T18:42:03.005Z</time></trkpt><trkpt lat="46.5527355" lon="12.5363025"><ele>900.0</ele><time>2026-04-22T18:42:04.004Z</time></trkpt><trkpt lat="46.5526772" lon="12.5360931"><ele>900.0</ele><time>2026-04-22T18:42:05.003Z</time></trkpt><trkpt lat="46.5526194" lon="12.5358933"><ele>898.5</ele><time>2026-04-22T18:42:06.006Z</time></trkpt><trkpt lat="46.5525677" lon="12.5357083"><ele>897.0</ele><time>2026-04-22T18:42:07.005Z</time></trkpt><trkpt lat="46.5525091" lon="12.5355336"><ele>895.5</ele><time>2026-04-22T18:42:08.002Z</time></trkpt><trkpt lat="46.5524471" lon="12.5353713"><ele>894.0</ele><time>2026-04-22T18:42:09.013Z</time></trkpt><trkpt lat="46.5523932" lon="12.5352222"><ele>893.8000000000001</ele><time>2026-04-22T18:42:10.001Z</time></trkpt><trkpt lat="46.5523434" lon="12.535081"><ele>893.6000000000001</ele><time>2026-04-22T18:42:11.008Z</time></trkpt><trkpt lat="46.5522971" lon="12.534956"><ele>893.4</ele><time>2026-04-22T18:42:12.012Z</time></trkpt><trkpt lat="46.5522412" lon="12.5348458"><ele>893.2</ele><time>2026-04-22T18:42:13.009Z</time></trkpt><trkpt lat="46.5521712" lon="12.5347518"><ele>893.0</ele><time>2026-04-22T18:42:14.008Z</time></trkpt><trkpt lat="46.5520865" lon="12.5346697"><ele>892.4</ele><time>2026-04-22T18:42:15.011Z</time></trkpt><trkpt lat="46.5519882" lon="12.5346063"><ele>891.8</ele><time>2026-04-22T18:42:15.998Z</time></trkpt><trkpt lat="46.551881" lon="12.534554"><ele>891.2</ele><time>2026-04-22T18:42:17.006Z</time></trkpt><trkpt lat="46.5517707" lon="12.5345081"><ele>890.6</ele><time>2026-04-22T18:42:18.002Z</time></trkpt><trkpt lat="46.5516676" lon="12.5344625"><ele>890.0</ele><time>2026-04-22T18:42:19.009Z</time></trkpt><trkpt lat="46.5515769" lon="12.5344181"><ele>890.0000000000001</ele><time>2026-04-22T18:42:20Z</time></trkpt><trkpt lat="46.5514927" lon="12.5343776"><ele>890.0</ele><time>2026-04-22T18:42:21.004Z</time></trkpt><trkpt lat="46.5514067" lon="12.5343422"><ele>890.0</ele><time>2026-04-22T18:42:21.998Z</time></trkpt><trkpt lat="46.5513345" lon="12.534296"><ele>890.0</ele><time>2026-04-22T18:42:23.006Z</time></trkpt><trkpt lat="46.5512724" lon="12.5342426"><ele>890.0000000000001</ele><time>2026-04-22T18:42:24.01Z</time></trkpt><trkpt lat="46.5512166" lon="12.5341755"><ele>890.0</ele><time>2026-04-22T18:42:25Z</time></trkpt><trkpt lat="46.5511661" lon="12.534089"><ele>888.4</ele><time>2026-04-22T18:42:26.008Z</time></trkpt><trkpt lat="46.5511353" lon="12.5339854"><ele>886.8</ele><time>2026-04-22T18:42:27.002Z</time></trkpt><trkpt lat="46.5511185" lon="12.5338623"><ele>885.2</ele><time>2026-04-22T18:42:28Z</time></trkpt><trkpt lat="46.5511178" lon="12.5337064"><ele>883.6</ele><time>2026-04-22T18:42:28.999Z</time></trkpt><trkpt lat="46.5511163" lon="12.5335466"><ele>882.0</ele><time>2026-04-22T18:42:30.007Z</time></trkpt><trkpt lat="46.5510993" lon="12.5333804"><ele>882.0</ele><time>2026-04-22T18:42:31.003Z</time></trkpt><trkpt lat="46.5510541" lon="12.533233"><ele>882.0</ele><time>2026-04-22T18:42:32.012Z</time></trkpt><trkpt lat="46.5510018" lon="12.5330898"><ele>882.0</ele><time>2026-04-22T18:42:33.008Z</time></trkpt><trkpt lat="46.5509363" lon="12.5329495"><ele>882.0</ele><time>2026-04-22T18:42:34.003Z</time></trkpt><trkpt lat="46.5508729" lon="12.5328029"><ele>886.25</ele><time>2026-04-22T18:42:35.004Z</time></trkpt><trkpt lat="46.5507978" lon="12.5326541"><ele>890.5</ele><time>2026-04-22T18:42:36.006Z</time></trkpt><trkpt lat="46.5507207" lon="12.5325056"><ele>894.75</ele><time>2026-04-22T18:42:37.006Z</time></trkpt><trkpt lat="46.5506496" lon="12.5323723"><ele>899.0</ele><time>2026-04-22T18:42:38.008Z</time></trkpt><trkpt lat="46.5505813" lon="12.5322435"><ele>899.0</ele><time>2026-04-22T18:42:39.008Z</time></trkpt><trkpt lat="46.5505143" lon="12.5321159"><ele>899.0000000000001</ele><time>2026-04-22T18:42:40.003Z</time></trkpt><trkpt lat="46.5504578" lon="12.5319727"><ele>899.0000000000001</ele><time>2026-04-22T18:42:41.003Z</time></trkpt><trkpt lat="46.5503997" lon="12.5318466"><ele>899.0</ele><time>2026-04-22T18:42:42.004Z</time></trkpt><trkpt lat="46.5503426" lon="12.5317289"><ele>899.0</ele><time>2026-04-22T18:42:43.005Z</time></trkpt><trkpt lat="46.5502863" lon="12.5316434"><ele>897.0000000000001</ele><time>2026-04-22T18:42:44.003Z</time></trkpt><trkpt lat="46.5502205" lon="12.5315779"><ele>895.0</ele><time>2026-04-22T18:42:45.013Z</time></trkpt><trkpt lat="46.5501362" lon="12.53153"><ele>893.0</ele><time>2026-04-22T18:42:46Z</time></trkpt><trkpt lat="46.5500466" lon="12.531513"><ele>891.0</ele><time>2026-04-22T18:42:47.007Z</time></trkpt><trkpt lat="46.5499531" lon="12.531535"><ele>889.0000000000001</ele><time>2026-04-22T18:42:48.01Z</time></trkpt><trkpt lat="46.5498643" lon="12.5315547"><ele>887.0</ele><time>2026-04-22T18:42:48.996Z</time></trkpt><trkpt lat="46.549782" lon="12.5315456"><ele>887.0000000000001</ele><time>2026-04-22T18:42:50.005Z</time></trkpt><trkpt lat="46.5497" lon="12.5315295"><ele>887.0</ele><time>2026-04-22T18:42:51.003Z</time></trkpt><trkpt lat="46.5496333" lon="12.5314612"><ele>887.0</ele><time>2026-04-22T18:42:52.005Z</time></trkpt><trkpt lat="46.5495833" lon="12.5313632"><ele>887.0</ele><time>2026-04-22T18:42:53.011Z</time></trkpt><trkpt lat="46.549532" lon="12.531255"><ele>887.0000000000001</ele><time>2026-04-22T18:42:54Z</time></trkpt><trkpt lat="46.54948" lon="12.5311594"><ele>887.0</ele><time>2026-04-22T18:42:55.005Z</time></trkpt><trkpt lat="46.549418" lon="12.5310691"><ele>888.2</ele><time>2026-04-22T18:42:56.005Z</time></trkpt><trkpt lat="46.5493521" lon="12.5309794"><ele>889.4000000000001</ele><time>2026-04-22T18:42:57.001Z</time></trkpt><trkpt lat="46.54928" lon="12.5309017"><ele>890.5999999999999</ele><time>2026-04-22T18:42:58.005Z</time></trkpt><trkpt lat="46.5492038" lon="12.5308512"><ele>891.8</ele><time>2026-04-22T18:42:59.001Z</time></trkpt><trkpt lat="46.5491065" lon="12.5308254"><ele>893.0</ele><time>2026-04-22T18:43:00Z</time></trkpt><trkpt lat="46.5490169" lon="12.530809"><ele>893.0</ele><time>2026-04-22T18:43:01.003Z</time></trkpt><trkpt lat="46.5489233" lon="12.530796"><ele>893.0</ele><time>2026-04-22T18:43:02.002Z</time></trkpt><trkpt lat="46.5488252" lon="12.5307959"><ele>893.0</ele><time>2026-04-22T18:43:02.996Z</time></trkpt><trkpt lat="46.5487296" lon="12.5307949"><ele>893.0</ele><time>2026-04-22T18:43:04.005Z</time></trkpt><trkpt lat="46.5486268" lon="12.5307941"><ele>893.0</ele><time>2026-04-22T18:43:05.001Z</time></trkpt><trkpt lat="46.5485243" lon="12.5308017"><ele>891.4</ele><time>2026-04-22T18:43:06.003Z</time></trkpt><trkpt lat="46.5484182" lon="12.5308252"><ele>889.8</ele><time>2026-04-22T18:43:07.006Z</time></trkpt><trkpt lat="46.5483189" lon="12.5308713"><ele>888.2</ele><time>2026-04-22T18:43:08.003Z</time></trkpt><trkpt lat="46.5482191" lon="12.5309312"><ele>886.6</ele><time>2026-04-22T18:43:09.001Z</time></trkpt><trkpt lat="46.5481264" lon="12.530999"><ele>885.0</ele><time>2026-04-22T18:43:09.998Z</time></trkpt><trkpt lat="46.5480308" lon="12.5310735"><ele>885.0</ele><time>2026-04-22T18:43:11Z</time></trkpt><trkpt lat="46.5479334" lon="12.53114"><ele>885.0</ele><time>2026-04-22T18:43:12.004Z</time></trkpt><trkpt lat="46.5478429" lon="12.5312106"><ele>885.0</ele><time>2026-04-22T18:43:13.002Z</time></trkpt><trkpt lat="46.547753" lon="12.5312819"><ele>885.0</ele><time>2026-04-22T18:43:14Z</time></trkpt><trkpt lat="46.5476735" lon="12.5313402"><ele>885.0</ele><time>2026-04-22T18:43:15.003Z</time></trkpt><trkpt lat="46.5476035" lon="12.5313796"><ele>891.1428571428571</ele><time>2026-04-22T18:43:16.004Z</time></trkpt><trkpt lat="46.547535" lon="12.5314092"><ele>897.2857142857142</ele><time>2026-04-22T18:43:17.004Z</time></trkpt><trkpt lat="46.5474684" lon="12.5314311"><ele>903.4285714285716</ele><time>2026-04-22T18:43:18.001Z</time></trkpt><trkpt lat="46.5474002" lon="12.5314712"><ele>909.5714285714287</ele><time>2026-04-22T18:43:18.997Z</time></trkpt><trkpt lat="46.5473341" lon="12.5315067"><ele>915.7142857142858</ele><time>2026-04-22T18:43:20.01Z</time></trkpt><trkpt lat="46.547265" lon="12.5315394"><ele>921.857142857143</ele><time>2026-04-22T18:43:20.994Z</time></trkpt><trkpt lat="46.5471837" lon="12.5315499"><ele>928.0000000000001</ele><time>2026-04-22T18:43:21.998Z</time></trkpt><trkpt lat="46.5470816" lon="12.5315617"><ele>930.8</ele><time>2026-04-22T18:43:23.008Z</time></trkpt><trkpt lat="46.5469821" lon="12.5315786"><ele>933.5999999999999</ele><time>2026-04-22T18:43:24.002Z</time></trkpt><trkpt lat="46.5468835" lon="12.5315934"><ele>936.4000000000001</ele><time>2026-04-22T18:43:24.999Z</time></trkpt><trkpt lat="46.5467871" lon="12.531588"><ele>939.2</ele><time>2026-04-22T18:43:26.003Z</time></trkpt><trkpt lat="46.5467036" lon="12.5315638"><ele>942.0</ele><time>2026-04-22T18:43:26.998Z</time></trkpt><trkpt lat="46.5466168" lon="12.5315197"><ele>942.0</ele><time>2026-04-22T18:43:28.001Z</time></trkpt><trkpt lat="46.5465372" lon="12.5314727"><ele>942.0</ele><time>2026-04-22T18:43:29.004Z</time></trkpt><trkpt lat="46.5464324" lon="12.5314254"><ele>942.0</ele><time>2026-04-22T18:43:29.997Z</time></trkpt><trkpt lat="46.5463279" lon="12.531362"><ele>942.0</ele><time>2026-04-22T18:43:31.007Z</time></trkpt><trkpt lat="46.5462136" lon="12.5312789"><ele>942.0</ele><time>2026-04-22T18:43:31.995Z</time></trkpt><trkpt lat="46.5460824" lon="12.5311999"><ele>929.75</ele><time>2026-04-22T18:43:33.003Z</time></trkpt><trkpt lat="46.545959" lon="12.5311067"><ele>917.5</ele><time>2026-04-22T18:43:34Z</time></trkpt><trkpt lat="46.5458311" lon="12.5310282"><ele>905.25</ele><time>2026-04-22T18:43:34.997Z</time></trkpt><trkpt lat="46.5456988" lon="12.5309406"><ele>893.0</ele><time>2026-04-22T18:43:36Z</time></trkpt><trkpt lat="46.5455535" lon="12.5308489"><ele>893.0</ele><time>2026-04-22T18:43:36.997Z</time></trkpt><trkpt lat="46.5453961" lon="12.530767"><ele>893.0</ele><time>2026-04-22T18:43:37.992Z</time></trkpt><trkpt lat="46.5452529" lon="12.5306922"><ele>893.0</ele><time>2026-04-22T18:43:38.994Z</time></trkpt><trkpt lat="46.545094" lon="12.5306215"><ele>892.6666666666667</ele><time>2026-04-22T18:43:39.994Z</time></trkpt><trkpt lat="46.5449369" lon="12.530538"><ele>892.3333333333333</ele><time>2026-04-22T18:43:40.99Z</time></trkpt><trkpt lat="46.5447863" lon="12.530443"><ele>892.0</ele><time>2026-04-22T18:43:42.005Z</time></trkpt><trkpt lat="46.5446284" lon="12.5303811"><ele>892.0</ele><time>2026-04-22T18:43:43.006Z</time></trkpt><trkpt lat="46.5444695" lon="12.5303221"><ele>892.0</ele><time>2026-04-22T18:43:43.995Z</time></trkpt><trkpt lat="46.5443043" lon="12.5302684"><ele>892.0</ele><time>2026-04-22T18:43:45.012Z</time></trkpt><trkpt lat="46.5441429" lon="12.5301975"><ele>892.0</ele><time>2026-04-22T18:43:45.995Z</time></trkpt><trkpt lat="46.5440023" lon="12.5301115"><ele>892.0</ele><time>2026-04-22T18:43:46.998Z</time></trkpt><trkpt lat="46.5438453" lon="12.5300777"><ele>892.0</ele><time>2026-04-22T18:43:47.999Z</time></trkpt><trkpt lat="46.5437001" lon="12.5300541"><ele>893.0</ele><time>2026-04-22T18:43:49.006Z</time></trkpt><trkpt lat="46.5435637" lon="12.5300286"><ele>894.0</ele><time>2026-04-22T18:43:50.006Z</time></trkpt><trkpt lat="46.5434457" lon="12.5299698"><ele>895.0</ele><time>2026-04-22T18:43:51.006Z</time></trkpt><trkpt lat="46.543338" lon="12.529916"><ele>896.0</ele><time>2026-04-22T18:43:52Z</time></trkpt><trkpt lat="46.5432367" lon="12.5298548"><ele>896.0</ele><time>2026-04-22T18:43:53.004Z</time></trkpt><trkpt lat="46.5431221" lon="12.5298021"><ele>896.0</ele><time>2026-04-22T18:43:54Z</time></trkpt><trkpt lat="46.5429931" lon="12.529762"><ele>896.0</ele><time>2026-04-22T18:43:55.006Z</time></trkpt><trkpt lat="46.5428692" lon="12.5297344"><ele>896.0</ele><time>2026-04-22T18:43:56.005Z</time></trkpt><trkpt lat="46.5427425" lon="12.5297146"><ele>894.5</ele><time>2026-04-22T18:43:57.004Z</time></trkpt><trkpt lat="46.542604" lon="12.529704"><ele>893.0</ele><time>2026-04-22T18:43:57.997Z</time></trkpt><trkpt lat="46.542462" lon="12.5296905"><ele>891.5</ele><time>2026-04-22T18:43:58.998Z</time></trkpt><trkpt lat="46.5423204" lon="12.5296708"><ele>890.0</ele><time>2026-04-22T18:43:59.996Z</time></trkpt><trkpt lat="46.5421881" lon="12.5296533"><ele>890.0</ele><time>2026-04-22T18:44:00.998Z</time></trkpt><trkpt lat="46.5420629" lon="12.5296314"><ele>890.0</ele><time>2026-04-22T18:44:01.994Z</time></trkpt><trkpt lat="46.5419433" lon="12.5296172"><ele>890.0</ele><time>2026-04-22T18:44:03.003Z</time></trkpt><trkpt lat="46.5418254" lon="12.5296212"><ele>890.0</ele><time>2026-04-22T18:44:03.998Z</time></trkpt><trkpt lat="46.5417093" lon="12.5296585"><ele>888.8</ele><time>2026-04-22T18:44:04.997Z</time></trkpt><trkpt lat="46.5415941" lon="12.5296933"><ele>887.6</ele><time>2026-04-22T18:44:06.004Z</time></trkpt><trkpt lat="46.5414924" lon="12.5297323"><ele>886.4000000000001</ele><time>2026-04-22T18:44:07Z</time></trkpt><trkpt lat="46.541401" lon="12.5297717"><ele>885.2</ele><time>2026-04-22T18:44:08.006Z</time></trkpt><trkpt lat="46.541313" lon="12.5298076"><ele>884.0</ele><time>2026-04-22T18:44:09.001Z</time></trkpt><trkpt lat="46.5412196" lon="12.5298299"><ele>883.2</ele><time>2026-04-22T18:44:10Z</time></trkpt><trkpt lat="46.5411308" lon="12.5298244"><ele>882.4000000000001</ele><time>2026-04-22T18:44:10.998Z</time></trkpt><trkpt lat="46.5410442" lon="12.5297988"><ele>881.6</ele><time>2026-04-22T18:44:12.005Z</time></trkpt><trkpt lat="46.5409663" lon="12.529705"><ele>880.8</ele><time>2026-04-22T18:44:12.999Z</time></trkpt><trkpt lat="46.5408968" lon="12.5295839"><ele>880.0</ele><time>2026-04-22T18:44:14.006Z</time></trkpt><trkpt lat="46.5408436" lon="12.529435"><ele>880.0</ele><time>2026-04-22T18:44:14.998Z</time></trkpt><trkpt lat="46.5407838" lon="12.5292535"><ele>880.0</ele><time>2026-04-22T18:44:15.997Z</time></trkpt><trkpt lat="46.5407088" lon="12.5290878"><ele>880.0</ele><time>2026-04-22T18:44:17.001Z</time></trkpt><trkpt lat="46.5406218" lon="12.5289339"><ele>880.0</ele><time>2026-04-22T18:44:18.005Z</time></trkpt><trkpt lat="46.5405231" lon="12.5287932"><ele>880.25</ele><time>2026-04-22T18:44:19.001Z</time></trkpt><trkpt lat="46.5404188" lon="12.5286573"><ele>880.5</ele><time>2026-04-22T18:44:20.012Z</time></trkpt><trkpt lat="46.5403087" lon="12.5285183"><ele>880.75</ele><time>2026-04-22T18:44:20.999Z</time></trkpt><trkpt lat="46.5401983" lon="12.5283867"><ele>881.0</ele><time>2026-04-22T18:44:21.998Z</time></trkpt><trkpt lat="46.540091" lon="12.5282627"><ele>881.0</ele><time>2026-04-22T18:44:23.004Z</time></trkpt><trkpt lat="46.5399859" lon="12.5281345"><ele>881.0</ele><time>2026-04-22T18:44:23.996Z</time></trkpt><trkpt lat="46.539878" lon="12.5280043"><ele>881.0</ele><time>2026-04-22T18:44:25.008Z</time></trkpt><trkpt lat="46.539769" lon="12.5278738"><ele>881.0</ele><time>2026-04-22T18:44:26Z</time></trkpt><trkpt lat="46.5396595" lon="12.5277478"><ele>880.5</ele><time>2026-04-22T18:44:27.003Z</time></trkpt><trkpt lat="46.539556" lon="12.527614"><ele>880.0</ele><time>2026-04-22T18:44:27.996Z</time></trkpt><trkpt lat="46.5394476" lon="12.5274774"><ele>879.5</ele><time>2026-04-22T18:44:29.011Z</time></trkpt><trkpt lat="46.539347" lon="12.5273375"><ele>879.0</ele><time>2026-04-22T18:44:29.993Z</time></trkpt><trkpt lat="46.5392398" lon="12.5271878"><ele>874.0</ele><time>2026-04-22T18:44:30.997Z</time></trkpt><trkpt lat="46.5391391" lon="12.5270349"><ele>869.0</ele><time>2026-04-22T18:44:31.995Z</time></trkpt><trkpt lat="46.5390507" lon="12.5268673"><ele>864.0</ele><time>2026-04-22T18:44:33.003Z</time></trkpt><trkpt lat="46.5389628" lon="12.5267037"><ele>859.0</ele><time>2026-04-22T18:44:33.994Z</time></trkpt><trkpt lat="46.5388774" lon="12.5265375"><ele>859.0</ele><time>2026-04-22T18:44:34.998Z</time></trkpt><trkpt lat="46.5387941" lon="12.5263748"><ele>859.0</ele><time>2026-04-22T18:44:36.006Z</time></trkpt><trkpt lat="46.5387388" lon="12.5262046"><ele>859.0</ele><time>2026-04-22T18:44:36.996Z</time></trkpt><trkpt lat="46.5387052" lon="12.5260131"><ele>859.0</ele><time>2026-04-22T18:44:38.004Z</time></trkpt><trkpt lat="46.5387012" lon="12.5258013"><ele>858.3333333333333</ele><time>2026-04-22T18:44:39.005Z</time></trkpt><trkpt lat="46.5387196" lon="12.5255689"><ele>857.6666666666667</ele><time>2026-04-22T18:44:39.997Z</time></trkpt><trkpt lat="46.5387458" lon="12.5253372"><ele>857.0</ele><time>2026-04-22T18:44:41.002Z</time></trkpt><trkpt lat="46.5387675" lon="12.5251122"><ele>863.3333333333334</ele><time>2026-04-22T18:44:42Z</time></trkpt><trkpt lat="46.5387659" lon="12.5248933"><ele>869.6666666666667</ele><time>2026-04-22T18:44:43.003Z</time></trkpt><trkpt lat="46.5387595" lon="12.5246747"><ele>876.0</ele><time>2026-04-22T18:44:44.001Z</time></trkpt><trkpt lat="46.5387357" lon="12.524454"><ele>869.6666666666667</ele><time>2026-04-22T18:44:45.005Z</time></trkpt><trkpt lat="46.5387021" lon="12.5242378"><ele>863.3333333333334</ele><time>2026-04-22T18:44:46.006Z</time></trkpt><trkpt lat="46.5386572" lon="12.5240196"><ele>857.0</ele><time>2026-04-22T18:44:47.002Z</time></trkpt><trkpt lat="46.5386104" lon="12.5238025"><ele>858.6666666666667</ele><time>2026-04-22T18:44:47.997Z</time></trkpt><trkpt lat="46.5385557" lon="12.5235861"><ele>860.3333333333333</ele><time>2026-04-22T18:44:48.999Z</time></trkpt><trkpt lat="46.5384969" lon="12.5233715"><ele>862.0</ele><time>2026-04-22T18:44:50.002Z</time></trkpt><trkpt lat="46.5384348" lon="12.5231528"><ele>862.0</ele><time>2026-04-22T18:44:51Z</time></trkpt><trkpt lat="46.5383782" lon="12.5229397"><ele>862.0</ele><time>2026-04-22T18:44:52.002Z</time></trkpt><trkpt lat="46.5383302" lon="12.5227284"><ele>862.0</ele><time>2026-04-22T18:44:53.004Z</time></trkpt><trkpt lat="46.5382912" lon="12.522513"><ele>864.6666666666666</ele><time>2026-04-22T18:44:54.001Z</time></trkpt><trkpt lat="46.5382625" lon="12.5222924"><ele>867.3333333333333</ele><time>2026-04-22T18:44:55.007Z</time></trkpt><trkpt lat="46.5382437" lon="12.522072"><ele>870.0</ele><time>2026-04-22T18:44:55.997Z</time></trkpt><trkpt lat="46.5382289" lon="12.5218504"><ele>874.6666666666667</ele><time>2026-04-22T18:44:56.998Z</time></trkpt><trkpt lat="46.5382142" lon="12.5216324"><ele>879.3333333333334</ele><time>2026-04-22T18:44:57.996Z</time></trkpt><trkpt lat="46.5381358" lon="12.5218322"><ele>884.0</ele><time>2026-04-22T18:45:13.476Z</time></trkpt><trkpt lat="46.5330161" lon="12.4696978"><ele>859.3333333333334</ele><time>2026-04-22T18:46:31.624Z</time></trkpt><trkpt lat="46.5332269" lon="12.4695681"><ele>834.6666666666667</ele><time>2026-04-22T18:48:14.998Z</time></trkpt><trkpt lat="46.5332645" lon="12.469393"><ele>810.0</ele><time>2026-04-22T18:48:16Z</time></trkpt><trkpt lat="46.5333455" lon="12.4692295"><ele>810.0</ele><time>2026-04-22T18:48:17.001Z</time></trkpt><trkpt lat="46.5334309" lon="12.4690794"><ele>810.0</ele><time>2026-04-22T18:48:17.994Z</time></trkpt><trkpt lat="46.5335204" lon="12.4689419"><ele>810.0</ele><time>2026-04-22T18:48:18.999Z</time></trkpt><trkpt lat="46.5336197" lon="12.4688167"><ele>810.0</ele><time>2026-04-22T18:48:19.998Z</time></trkpt><trkpt lat="46.5337244" lon="12.4686967"><ele>811.8</ele><time>2026-04-22T18:48:21.01Z</time></trkpt><trkpt lat="46.5338167" lon="12.4685863"><ele>813.6</ele><time>2026-04-22T18:48:22Z</time></trkpt><trkpt lat="46.533902" lon="12.4684789"><ele>815.4000000000001</ele><time>2026-04-22T18:48:23.007Z</time></trkpt><trkpt lat="46.5339872" lon="12.4683811"><ele>817.2</ele><time>2026-04-22T18:48:24.003Z</time></trkpt><trkpt lat="46.534072" lon="12.4683012"><ele>819.0</ele><time>2026-04-22T18:48:25Z</time></trkpt><trkpt lat="46.5341534" lon="12.4682195"><ele>819.0</ele><time>2026-04-22T18:48:26.003Z</time></trkpt><trkpt lat="46.5342361" lon="12.4681479"><ele>819.0</ele><time>2026-04-22T18:48:26.998Z</time></trkpt><trkpt lat="46.5343225" lon="12.4680755"><ele>819.0</ele><time>2026-04-22T18:48:27.998Z</time></trkpt><trkpt lat="46.5344239" lon="12.4680064"><ele>819.0</ele><time>2026-04-22T18:48:28.999Z</time></trkpt><trkpt lat="46.5345455" lon="12.4679314"><ele>819.0</ele><time>2026-04-22T18:48:30.004Z</time></trkpt><trkpt lat="46.5346896" lon="12.4678493"><ele>815.0</ele><time>2026-04-22T18:48:30.999Z</time></trkpt><trkpt lat="46.5348414" lon="12.4677711"><ele>811.0</ele><time>2026-04-22T18:48:31.999Z</time></trkpt><trkpt lat="46.5349921" lon="12.4676918"><ele>807.0</ele><time>2026-04-22T18:48:33.004Z</time></trkpt><trkpt lat="46.5351407" lon="12.4676133"><ele>807.0</ele><time>2026-04-22T18:48:34Z</time></trkpt><trkpt lat="46.5352891" lon="12.4675411"><ele>807.0</ele><time>2026-04-22T18:48:35.004Z</time></trkpt><trkpt lat="46.5354433" lon="12.4674805"><ele>807.0</ele><time>2026-04-22T18:48:36Z</time></trkpt><trkpt lat="46.5356023" lon="12.4674339"><ele>813.0</ele><time>2026-04-22T18:48:37.003Z</time></trkpt><trkpt lat="46.5357678" lon="12.4673917"><ele>819.0</ele><time>2026-04-22T18:48:38.001Z</time></trkpt><trkpt lat="46.5359384" lon="12.467345"><ele>825.0</ele><time>2026-04-22T18:48:38.996Z</time></trkpt><trkpt lat="46.5361068" lon="12.4673012"><ele>831.6666666666667</ele><time>2026-04-22T18:48:39.995Z</time></trkpt><trkpt lat="46.5362741" lon="12.4672629"><ele>838.3333333333334</ele><time>2026-04-22T18:48:41.001Z</time></trkpt><trkpt lat="46.5364363" lon="12.4672437"><ele>845.0</ele><time>2026-04-22T18:48:41.998Z</time></trkpt><trkpt lat="46.5365949" lon="12.4672379"><ele>845.0</ele><time>2026-04-22T18:48:43.004Z</time></trkpt><trkpt lat="46.5367555" lon="12.4672477"><ele>845.0</ele><time>2026-04-22T18:48:44.006Z</time></trkpt><trkpt lat="46.5369061" lon="12.4672308"><ele>845.0</ele><time>2026-04-22T18:48:45.004Z</time></trkpt><trkpt lat="46.537053" lon="12.46718"><ele>839.0</ele><time>2026-04-22T18:48:46.002Z</time></trkpt><trkpt lat="46.5371905" lon="12.4670919"><ele>833.0</ele><time>2026-04-22T18:48:47.003Z</time></trkpt><trkpt lat="46.5373151" lon="12.4669748"><ele>827.0</ele><time>2026-04-22T18:48:48.008Z</time></trkpt><trkpt lat="46.5374354" lon="12.4668295"><ele>827.0</ele><time>2026-04-22T18:48:49Z</time></trkpt><trkpt lat="46.5375563" lon="12.4666622"><ele>827.0</ele><time>2026-04-22T18:48:50.003Z</time></trkpt><trkpt lat="46.5376781" lon="12.4664935"><ele>827.0</ele><time>2026-04-22T18:48:50.997Z</time></trkpt><trkpt lat="46.5378042" lon="12.4663224"><ele>833.3333333333334</ele><time>2026-04-22T18:48:52.003Z</time></trkpt><trkpt lat="46.537938" lon="12.466146"><ele>839.6666666666667</ele><time>2026-04-22T18:48:53.004Z</time></trkpt><trkpt lat="46.5380689" lon="12.4659705"><ele>846.0</ele><time>2026-04-22T18:48:54.003Z</time></trkpt><trkpt lat="46.538179" lon="12.4657966"><ele>846.0</ele><time>2026-04-22T18:48:54.998Z</time></trkpt><trkpt lat="46.5382776" lon="12.4655977"><ele>846.0</ele><time>2026-04-22T18:48:56Z</time></trkpt><trkpt lat="46.5383693" lon="12.4653838"><ele>846.0</ele><time>2026-04-22T18:48:57.003Z</time></trkpt><trkpt lat="46.538459" lon="12.4651655"><ele>841.6666666666667</ele><time>2026-04-22T18:48:57.997Z</time></trkpt><trkpt lat="46.5385521" lon="12.4649403"><ele>837.3333333333334</ele><time>2026-04-22T18:48:59.007Z</time></trkpt><trkpt lat="46.5386593" lon="12.4647202"><ele>833.0</ele><time>2026-04-22T18:49:00.01Z</time></trkpt><trkpt lat="46.5387741" lon="12.4644985"><ele>833.0</ele><time>2026-04-22T18:49:01.001Z</time></trkpt><trkpt lat="46.5388875" lon="12.4642942"><ele>833.0</ele><time>2026-04-22T18:49:02.003Z</time></trkpt><trkpt lat="46.5389808" lon="12.4641232"><ele>833.0</ele><time>2026-04-22T18:49:03Z</time></trkpt><trkpt lat="46.5390771" lon="12.4639748"><ele>833.0</ele><time>2026-04-22T18:49:03.997Z</time></trkpt><trkpt lat="46.5391868" lon="12.4638381"><ele>833.0</ele><time>2026-04-22T18:49:04.997Z</time></trkpt><trkpt lat="46.5393198" lon="12.4637384"><ele>833.0</ele><time>2026-04-22T18:49:05.998Z</time></trkpt><trkpt lat="46.5394622" lon="12.4636234"><ele>831.3333333333334</ele><time>2026-04-22T18:49:07.004Z</time></trkpt><trkpt lat="46.5396207" lon="12.4634945"><ele>829.6666666666667</ele><time>2026-04-22T18:49:08.006Z</time></trkpt><trkpt lat="46.5397718" lon="12.4633684"><ele>828.0</ele><time>2026-04-22T18:49:09.001Z</time></trkpt><trkpt lat="46.5399246" lon="12.4632558"><ele>828.0</ele><time>2026-04-22T18:49:09.997Z</time></trkpt><trkpt lat="46.5400971" lon="12.4631739"><ele>828.0</ele><time>2026-04-22T18:49:11.001Z</time></trkpt><trkpt lat="46.5402791" lon="12.4631123"><ele>828.0</ele><time>2026-04-22T18:49:12.011Z</time></trkpt><trkpt lat="46.5404698" lon="12.4630476"><ele>828.0</ele><time>2026-04-22T18:49:13.003Z</time></trkpt><trkpt lat="46.5406486" lon="12.4629781"><ele>828.0</ele><time>2026-04-22T18:49:14.006Z</time></trkpt><trkpt lat="46.5408074" lon="12.4629175"><ele>828.0</ele><time>2026-04-22T18:49:15Z</time></trkpt><trkpt lat="46.5409657" lon="12.4628569"><ele>828.0</ele><time>2026-04-22T18:49:16.008Z</time></trkpt><trkpt lat="46.5411245" lon="12.4628028"><ele>828.0</ele><time>2026-04-22T18:49:17.004Z</time></trkpt><trkpt lat="46.5412736" lon="12.4627476"><ele>828.0</ele><time>2026-04-22T18:49:18.005Z</time></trkpt><trkpt lat="46.541415" lon="12.4626881"><ele>830.25</ele><time>2026-04-22T18:49:19.009Z</time></trkpt><trkpt lat="46.5415365" lon="12.4626166"><ele>832.5</ele><time>2026-04-22T18:49:20.006Z</time></trkpt><trkpt lat="46.5416531" lon="12.462515"><ele>834.75</ele><time>2026-04-22T18:49:21.008Z</time></trkpt><trkpt lat="46.5417505" lon="12.462381"><ele>837.0</ele><time>2026-04-22T18:49:22.002Z</time></trkpt><trkpt lat="46.5418327" lon="12.4622098"><ele>835.0</ele><time>2026-04-22T18:49:23.007Z</time></trkpt><trkpt lat="46.5419026" lon="12.4620102"><ele>833.0</ele><time>2026-04-22T18:49:24.008Z</time></trkpt><trkpt lat="46.5419773" lon="12.4618118"><ele>831.0</ele><time>2026-04-22T18:49:25.013Z</time></trkpt><trkpt lat="46.5420629" lon="12.4616155"><ele>833.6666666666667</ele><time>2026-04-22T18:49:26.004Z</time></trkpt><trkpt lat="46.542157" lon="12.4614141"><ele>836.3333333333334</ele><time>2026-04-22T18:49:27.005Z</time></trkpt><trkpt lat="46.5422624" lon="12.4612094"><ele>839.0</ele><time>2026-04-22T18:49:28.008Z</time></trkpt><trkpt lat="46.5423836" lon="12.4610156"><ele>839.0</ele><time>2026-04-22T18:49:29.007Z</time></trkpt><trkpt lat="46.5425054" lon="12.4608286"><ele>839.0</ele><time>2026-04-22T18:49:30.006Z</time></trkpt><trkpt lat="46.5426238" lon="12.4606487"><ele>839.0</ele><time>2026-04-22T18:49:31.001Z</time></trkpt><trkpt lat="46.5427516" lon="12.4604806"><ele>840.3333333333334</ele><time>2026-04-22T18:49:32.001Z</time></trkpt><trkpt lat="46.5428837" lon="12.4603228"><ele>841.6666666666667</ele><time>2026-04-22T18:49:33.001Z</time></trkpt><trkpt lat="46.5430295" lon="12.4601865"><ele>843.0</ele><time>2026-04-22T18:49:34.004Z</time></trkpt><trkpt lat="46.5431746" lon="12.4600488"><ele>843.0</ele><time>2026-04-22T18:49:35.006Z</time></trkpt><trkpt lat="46.5433167" lon="12.4599017"><ele>843.0</ele><time>2026-04-22T18:49:36.008Z</time></trkpt><trkpt lat="46.543465" lon="12.4597618"><ele>843.0</ele><time>2026-04-22T18:49:37.008Z</time></trkpt><trkpt lat="46.5436192" lon="12.4596173"><ele>842.6666666666667</ele><time>2026-04-22T18:49:37.997Z</time></trkpt><trkpt lat="46.5437693" lon="12.4594807"><ele>842.3333333333334</ele><time>2026-04-22T18:49:39.005Z</time></trkpt><trkpt lat="46.543938" lon="12.4593301"><ele>842.0</ele><time>2026-04-22T18:49:40.005Z</time></trkpt><trkpt lat="46.5441081" lon="12.4591634"><ele>842.0</ele><time>2026-04-22T18:49:41.008Z</time></trkpt><trkpt lat="46.5442536" lon="12.4590196"><ele>842.0</ele><time>2026-04-22T18:49:42.01Z</time></trkpt><trkpt lat="46.5443772" lon="12.4588761"><ele>842.0</ele><time>2026-04-22T18:49:43.008Z</time></trkpt><trkpt lat="46.5445026" lon="12.4587517"><ele>843.0</ele><time>2026-04-22T18:49:44.004Z</time></trkpt><trkpt lat="46.5446193" lon="12.4586305"><ele>844.0</ele><time>2026-04-22T18:49:45.009Z</time></trkpt><trkpt lat="46.5447288" lon="12.4585177"><ele>845.0</ele><time>2026-04-22T18:49:46.008Z</time></trkpt><trkpt lat="46.544834" lon="12.4584251"><ele>846.0</ele><time>2026-04-22T18:49:47.01Z</time></trkpt><trkpt lat="46.5449306" lon="12.4583278"><ele>846.0</ele><time>2026-04-22T18:49:48.002Z</time></trkpt><trkpt lat="46.5450215" lon="12.4582292"><ele>846.0</ele><time>2026-04-22T18:49:49.011Z</time></trkpt><trkpt lat="46.5451005" lon="12.4581386"><ele>846.0</ele><time>2026-04-22T18:49:50.003Z</time></trkpt><trkpt lat="46.5451715" lon="12.4580519"><ele>846.0</ele><time>2026-04-22T18:49:51.003Z</time></trkpt><trkpt lat="46.5452333" lon="12.4579423"><ele>846.0</ele><time>2026-04-22T18:49:52.001Z</time></trkpt><trkpt lat="46.5452936" lon="12.4578174"><ele>844.75</ele><time>2026-04-22T18:49:53.006Z</time></trkpt><trkpt lat="46.5453367" lon="12.4576464"><ele>843.5</ele><time>2026-04-22T18:49:54.002Z</time></trkpt><trkpt lat="46.545398" lon="12.4574505"><ele>842.25</ele><time>2026-04-22T18:49:55.013Z</time></trkpt><trkpt lat="46.5454426" lon="12.4572259"><ele>841.0</ele><time>2026-04-22T18:49:56.002Z</time></trkpt><trkpt lat="46.5454889" lon="12.4570044"><ele>845.0</ele><time>2026-04-22T18:49:57.006Z</time></trkpt><trkpt lat="46.5455348" lon="12.4567885"><ele>849.0</ele><time>2026-04-22T18:49:58.002Z</time></trkpt><trkpt lat="46.5456032" lon="12.4565702"><ele>853.0</ele><time>2026-04-22T18:49:59.013Z</time></trkpt><trkpt lat="46.5456791" lon="12.456358"><ele>852.3333333333333</ele><time>2026-04-22T18:50:00.015Z</time></trkpt><trkpt lat="46.545775" lon="12.4561403"><ele>851.6666666666667</ele><time>2026-04-22T18:50:01.008Z</time></trkpt><trkpt lat="46.5458755" lon="12.4559425"><ele>851.0</ele><time>2026-04-22T18:50:02.003Z</time></trkpt><trkpt lat="46.5459889" lon="12.45574"><ele>851.0</ele><time>2026-04-22T18:50:03.004Z</time></trkpt><trkpt lat="46.546104" lon="12.455537"><ele>851.0</ele><time>2026-04-22T18:50:04Z</time></trkpt><trkpt lat="46.5462197" lon="12.45534"><ele>851.0</ele><time>2026-04-22T18:50:05.006Z</time></trkpt><trkpt lat="46.5463235" lon="12.4551443"><ele>852.3333333333334</ele><time>2026-04-22T18:50:06.005Z</time></trkpt><trkpt lat="46.546426" lon="12.4549551"><ele>853.6666666666667</ele><time>2026-04-22T18:50:07.003Z</time></trkpt><trkpt lat="46.5465237" lon="12.4547681"><ele>855.0</ele><time>2026-04-22T18:50:08.006Z</time></trkpt><trkpt lat="46.5466202" lon="12.4545714"><ele>855.0</ele><time>2026-04-22T18:50:09.007Z</time></trkpt><trkpt lat="46.5467022" lon="12.45436"><ele>855.0</ele><time>2026-04-22T18:50:10.005Z</time></trkpt><trkpt lat="46.5467857" lon="12.4541482"><ele>855.0</ele><time>2026-04-22T18:50:11.01Z</time></trkpt><trkpt lat="46.5468845" lon="12.4539114"><ele>854.3333333333333</ele><time>2026-04-22T18:50:12.005Z</time></trkpt><trkpt lat="46.5469713" lon="12.453654"><ele>853.6666666666666</ele><time>2026-04-22T18:50:13.008Z</time></trkpt><trkpt lat="46.5470518" lon="12.4534097"><ele>853.0</ele><time>2026-04-22T18:50:14.004Z</time></trkpt><trkpt lat="46.5471231" lon="12.4531974"><ele>853.0</ele><time>2026-04-22T18:50:15.001Z</time></trkpt><trkpt lat="46.5472036" lon="12.4530045"><ele>853.0</ele><time>2026-04-22T18:50:16.02Z</time></trkpt><trkpt lat="46.5472882" lon="12.4528123"><ele>853.0</ele><time>2026-04-22T18:50:17.007Z</time></trkpt><trkpt lat="46.5473854" lon="12.4526141"><ele>853.0</ele><time>2026-04-22T18:50:18.014Z</time></trkpt><trkpt lat="46.5475046" lon="12.4524159"><ele>853.0</ele><time>2026-04-22T18:50:19.004Z</time></trkpt><trkpt lat="46.5476267" lon="12.4522275"><ele>853.0</ele><time>2026-04-22T18:50:20.004Z</time></trkpt><trkpt lat="46.5477453" lon="12.452055"><ele>852.0</ele><time>2026-04-22T18:50:21.002Z</time></trkpt><trkpt lat="46.5478413" lon="12.451887"><ele>851.0</ele><time>2026-04-22T18:50:22.007Z</time></trkpt><trkpt lat="46.547929" lon="12.4516958"><ele>850.0</ele><time>2026-04-22T18:50:23.006Z</time></trkpt><trkpt lat="46.5479914" lon="12.4514638"><ele>853.0</ele><time>2026-04-22T18:50:24.009Z</time></trkpt><trkpt lat="46.548043" lon="12.4512286"><ele>856.0</ele><time>2026-04-22T18:50:25.008Z</time></trkpt><trkpt lat="46.548102" lon="12.4509933"><ele>859.0</ele><time>2026-04-22T18:50:26.006Z</time></trkpt><trkpt lat="46.5481572" lon="12.4507753"><ele>859.0</ele><time>2026-04-22T18:50:27.005Z</time></trkpt><trkpt lat="46.5482122" lon="12.4505687"><ele>859.0</ele><time>2026-04-22T18:50:28.004Z</time></trkpt><trkpt lat="46.5482701" lon="12.4503946"><ele>859.0</ele><time>2026-04-22T18:50:29.002Z</time></trkpt><trkpt lat="46.5483337" lon="12.4502232"><ele>859.0</ele><time>2026-04-22T18:50:30.005Z</time></trkpt><trkpt lat="46.5484001" lon="12.4500564"><ele>859.25</ele><time>2026-04-22T18:50:31.006Z</time></trkpt><trkpt lat="46.5484719" lon="12.4498875"><ele>859.5</ele><time>2026-04-22T18:50:32.01Z</time></trkpt><trkpt lat="46.5485576" lon="12.4497211"><ele>859.75</ele><time>2026-04-22T18:50:33.006Z</time></trkpt><trkpt lat="46.548638" lon="12.4495634"><ele>860.0</ele><time>2026-04-22T18:50:34.005Z</time></trkpt><trkpt lat="46.5487121" lon="12.4494052"><ele>860.0</ele><time>2026-04-22T18:50:35.001Z</time></trkpt><trkpt lat="46.5487907" lon="12.4492423"><ele>860.0</ele><time>2026-04-22T18:50:36Z</time></trkpt><trkpt lat="46.5488464" lon="12.4491031"><ele>860.0</ele><time>2026-04-22T18:50:37.009Z</time></trkpt><trkpt lat="46.5488991" lon="12.4489597"><ele>860.0</ele><time>2026-04-22T18:50:38.002Z</time></trkpt><trkpt lat="46.5489478" lon="12.4488204"><ele>859.6666666666667</ele><time>2026-04-22T18:50:39.013Z</time></trkpt><trkpt lat="46.5489927" lon="12.4486419"><ele>859.3333333333333</ele><time>2026-04-22T18:50:40.006Z</time></trkpt><trkpt lat="46.5490304" lon="12.4484317"><ele>859.0</ele><time>2026-04-22T18:50:41.01Z</time></trkpt><trkpt lat="46.5490933" lon="12.4481996"><ele>858.3333333333333</ele><time>2026-04-22T18:50:42.001Z</time></trkpt><trkpt lat="46.5491686" lon="12.447959"><ele>857.6666666666667</ele><time>2026-04-22T18:50:43Z</time></trkpt><trkpt lat="46.5492437" lon="12.4477138"><ele>857.0</ele><time>2026-04-22T18:50:43.998Z</time></trkpt><trkpt lat="46.549326" lon="12.4474762"><ele>857.0</ele><time>2026-04-22T18:50:45Z</time></trkpt><trkpt lat="46.549393" lon="12.4472416"><ele>857.0</ele><time>2026-04-22T18:50:46.012Z</time></trkpt><trkpt lat="46.5494644" lon="12.4470089"><ele>857.0</ele><time>2026-04-22T18:50:47.007Z</time></trkpt><trkpt lat="46.5495374" lon="12.4467762"><ele>860.0</ele><time>2026-04-22T18:50:48Z</time></trkpt><trkpt lat="46.5496168" lon="12.4465586"><ele>863.0</ele><time>2026-04-22T18:50:49.008Z</time></trkpt><trkpt lat="46.5497023" lon="12.4463386"><ele>866.0</ele><time>2026-04-22T18:50:50.003Z</time></trkpt><trkpt lat="46.5497822" lon="12.4461175"><ele>866.0</ele><time>2026-04-22T18:50:51.008Z</time></trkpt><trkpt lat="46.5498543" lon="12.4458895"><ele>866.0</ele><time>2026-04-22T18:50:52.005Z</time></trkpt><trkpt lat="46.5499362" lon="12.4456607"><ele>866.0</ele><time>2026-04-22T18:50:53.004Z</time></trkpt><trkpt lat="46.5500203" lon="12.4454373"><ele>864.6666666666667</ele><time>2026-04-22T18:50:54.011Z</time></trkpt><trkpt lat="46.5501089" lon="12.4452111"><ele>863.3333333333333</ele><time>2026-04-22T18:50:55.004Z</time></trkpt><trkpt lat="46.5502018" lon="12.4449928"><ele>862.0</ele><time>2026-04-22T18:50:56.007Z</time></trkpt><trkpt lat="46.5503094" lon="12.4447841"><ele>863.3333333333333</ele><time>2026-04-22T18:50:57.001Z</time></trkpt><trkpt lat="46.5504347" lon="12.4445712"><ele>864.6666666666667</ele><time>2026-04-22T18:50:58.002Z</time></trkpt><trkpt lat="46.5505694" lon="12.4443562"><ele>866.0</ele><time>2026-04-22T18:50:59.009Z</time></trkpt><trkpt lat="46.5506915" lon="12.4441476"><ele>866.0</ele><time>2026-04-22T18:51:00.007Z</time></trkpt><trkpt lat="46.5508062" lon="12.4439583"><ele>866.0</ele><time>2026-04-22T18:51:01.003Z</time></trkpt><trkpt lat="46.5509142" lon="12.4437732"><ele>866.0</ele><time>2026-04-22T18:51:02.01Z</time></trkpt><trkpt lat="46.5510255" lon="12.4435907"><ele>867.3333333333334</ele><time>2026-04-22T18:51:03.009Z</time></trkpt><trkpt lat="46.5511374" lon="12.4434051"><ele>868.6666666666667</ele><time>2026-04-22T18:51:04.003Z</time></trkpt><trkpt lat="46.5512496" lon="12.4432071"><ele>870.0</ele><time>2026-04-22T18:51:05.008Z</time></trkpt><trkpt lat="46.5513503" lon="12.4429855"><ele>868.3333333333333</ele><time>2026-04-22T18:51:05.998Z</time></trkpt><trkpt lat="46.5514369" lon="12.4427807"><ele>866.6666666666666</ele><time>2026-04-22T18:51:07.013Z</time></trkpt><trkpt lat="46.551522" lon="12.4425832"><ele>865.0</ele><time>2026-04-22T18:51:08.003Z</time></trkpt><trkpt lat="46.5515987" lon="12.4423678"><ele>865.0</ele><time>2026-04-22T18:51:09.015Z</time></trkpt><trkpt lat="46.5516757" lon="12.4421551"><ele>865.0</ele><time>2026-04-22T18:51:10.004Z</time></trkpt><trkpt lat="46.5517659" lon="12.4419427"><ele>865.0</ele><time>2026-04-22T18:51:11.004Z</time></trkpt><trkpt lat="46.5518661" lon="12.4417378"><ele>864.6666666666666</ele><time>2026-04-22T18:51:12.005Z</time></trkpt><trkpt lat="46.5519682" lon="12.4415338"><ele>864.3333333333333</ele><time>2026-04-22T18:51:13.003Z</time></trkpt><trkpt lat="46.5520675" lon="12.4413505"><ele>864.0</ele><time>2026-04-22T18:51:14.01Z</time></trkpt><trkpt lat="46.5521662" lon="12.4411637"><ele>862.0</ele><time>2026-04-22T18:51:15.008Z</time></trkpt><trkpt lat="46.5522657" lon="12.4409928"><ele>860.0</ele><time>2026-04-22T18:51:16.005Z</time></trkpt><trkpt lat="46.5523529" lon="12.4408363"><ele>858.0</ele><time>2026-04-22T18:51:17.009Z</time></trkpt><trkpt lat="46.5524341" lon="12.4407026"><ele>856.0</ele><time>2026-04-22T18:51:18.007Z</time></trkpt><trkpt lat="46.5525224" lon="12.4405654"><ele>856.1999999999999</ele><time>2026-04-22T18:51:19.006Z</time></trkpt><trkpt lat="46.552608" lon="12.4404468"><ele>856.3999999999999</ele><time>2026-04-22T18:51:20.001Z</time></trkpt><trkpt lat="46.5526775" lon="12.4403275"><ele>856.6</ele><time>2026-04-22T18:51:21.01Z</time></trkpt><trkpt lat="46.5527393" lon="12.4402115"><ele>856.8</ele><time>2026-04-22T18:51:22.008Z</time></trkpt><trkpt lat="46.552779" lon="12.4400627"><ele>857.0</ele><time>2026-04-22T18:51:23.009Z</time></trkpt><trkpt lat="46.552787" lon="12.439899"><ele>857.0</ele><time>2026-04-22T18:51:24.005Z</time></trkpt><trkpt lat="46.5527822" lon="12.4397547"><ele>857.0</ele><time>2026-04-22T18:51:25.008Z</time></trkpt><trkpt lat="46.5527645" lon="12.4396329"><ele>857.0</ele><time>2026-04-22T18:51:26.009Z</time></trkpt><trkpt lat="46.5527225" lon="12.4395167"><ele>857.0</ele><time>2026-04-22T18:51:27.017Z</time></trkpt><trkpt lat="46.5526795" lon="12.439388"><ele>857.0</ele><time>2026-04-22T18:51:28.006Z</time></trkpt><trkpt lat="46.5526497" lon="12.4392605"><ele>857.5</ele><time>2026-04-22T18:51:29.002Z</time></trkpt><trkpt lat="46.5525983" lon="12.43913"><ele>858.0</ele><time>2026-04-22T18:51:30.004Z</time></trkpt><trkpt lat="46.5525311" lon="12.4389795"><ele>858.5</ele><time>2026-04-22T18:51:31.004Z</time></trkpt><trkpt lat="46.5524406" lon="12.4387931"><ele>859.0</ele><time>2026-04-22T18:51:32.007Z</time></trkpt><trkpt lat="46.5523688" lon="12.4386024"><ele>860.3333333333333</ele><time>2026-04-22T18:51:33.005Z</time></trkpt><trkpt lat="46.5522911" lon="12.4383933"><ele>861.6666666666667</ele><time>2026-04-22T18:51:34Z</time></trkpt><trkpt lat="46.5522263" lon="12.4381799"><ele>863.0</ele><time>2026-04-22T18:51:35.008Z</time></trkpt><trkpt lat="46.5521698" lon="12.4379759"><ele>863.25</ele><time>2026-04-22T18:51:36Z</time></trkpt><trkpt lat="46.552122" lon="12.437776"><ele>863.5</ele><time>2026-04-22T18:51:37.006Z</time></trkpt><trkpt lat="46.552073" lon="12.4375816"><ele>863.75</ele><time>2026-04-22T18:51:37.998Z</time></trkpt><trkpt lat="46.552044" lon="12.4373579"><ele>864.0</ele><time>2026-04-22T18:51:39.001Z</time></trkpt><trkpt lat="46.5520458" lon="12.4371047"><ele>864.6666666666667</ele><time>2026-04-22T18:51:40.003Z</time></trkpt><trkpt lat="46.5520602" lon="12.4368224"><ele>865.3333333333334</ele><time>2026-04-22T18:51:40.998Z</time></trkpt><trkpt lat="46.5520825" lon="12.4365401"><ele>866.0</ele><time>2026-04-22T18:51:42.007Z</time></trkpt><trkpt lat="46.5520823" lon="12.4362571"><ele>867.3333333333334</ele><time>2026-04-22T18:51:43.003Z</time></trkpt><trkpt lat="46.552078" lon="12.4359636"><ele>868.6666666666667</ele><time>2026-04-22T18:51:44.012Z</time></trkpt><trkpt lat="46.5520651" lon="12.4356729"><ele>870.0</ele><time>2026-04-22T18:51:45.004Z</time></trkpt><trkpt lat="46.5520656" lon="12.4353875"><ele>870.0</ele><time>2026-04-22T18:51:46.007Z</time></trkpt><trkpt lat="46.5520668" lon="12.4351212"><ele>870.0</ele><time>2026-04-22T18:51:47.008Z</time></trkpt><trkpt lat="46.5520835" lon="12.4348621"><ele>870.0</ele><time>2026-04-22T18:51:48.013Z</time></trkpt><trkpt lat="46.5521114" lon="12.4346109"><ele>870.0</ele><time>2026-04-22T18:51:49.006Z</time></trkpt><trkpt lat="46.5521484" lon="12.4343805"><ele>870.0</ele><time>2026-04-22T18:51:50.018Z</time></trkpt><trkpt lat="46.5521939" lon="12.4341633"><ele>870.0</ele><time>2026-04-22T18:51:51.003Z</time></trkpt><trkpt lat="46.552244" lon="12.4339417"><ele>869.0</ele><time>2026-04-22T18:51:52.005Z</time></trkpt><trkpt lat="46.5522949" lon="12.4337386"><ele>868.0</ele><time>2026-04-22T18:51:53.007Z</time></trkpt><trkpt lat="46.5523483" lon="12.4335556"><ele>867.0</ele><time>2026-04-22T18:51:54.004Z</time></trkpt><trkpt lat="46.5524021" lon="12.4333769"><ele>866.0</ele><time>2026-04-22T18:51:55.011Z</time></trkpt><trkpt lat="46.552462" lon="12.4331964"><ele>866.0</ele><time>2026-04-22T18:51:56.002Z</time></trkpt><trkpt lat="46.552542" lon="12.4330289"><ele>866.0</ele><time>2026-04-22T18:51:57.005Z</time></trkpt><trkpt lat="46.5526396" lon="12.432871"><ele>866.0</ele><time>2026-04-22T18:51:58.005Z</time></trkpt><trkpt lat="46.5527533" lon="12.4327233"><ele>866.0</ele><time>2026-04-22T18:51:59.002Z</time></trkpt><trkpt lat="46.5528811" lon="12.4325744"><ele>866.0</ele><time>2026-04-22T18:52:00.004Z</time></trkpt><trkpt lat="46.5530067" lon="12.4324244"><ele>866.0</ele><time>2026-04-22T18:52:01.006Z</time></trkpt><trkpt lat="46.5531303" lon="12.432256"><ele>866.0</ele><time>2026-04-22T18:52:02.003Z</time></trkpt><trkpt lat="46.5532411" lon="12.4320684"><ele>865.3333333333334</ele><time>2026-04-22T18:52:03.001Z</time></trkpt><trkpt lat="46.5533417" lon="12.4318594"><ele>864.6666666666667</ele><time>2026-04-22T18:52:04.001Z</time></trkpt><trkpt lat="46.5534306" lon="12.4316312"><ele>864.0</ele><time>2026-04-22T18:52:05.007Z</time></trkpt><trkpt lat="46.5535166" lon="12.4314049"><ele>863.0</ele><time>2026-04-22T18:52:06.001Z</time></trkpt><trkpt lat="46.5535852" lon="12.4311574"><ele>862.0</ele><time>2026-04-22T18:52:07.001Z</time></trkpt><trkpt lat="46.5536567" lon="12.4309263"><ele>861.0</ele><time>2026-04-22T18:52:08.005Z</time></trkpt><trkpt lat="46.5537274" lon="12.4307141"><ele>861.75</ele><time>2026-04-22T18:52:09.002Z</time></trkpt><trkpt lat="46.5537913" lon="12.4305222"><ele>862.5</ele><time>2026-04-22T18:52:10.01Z</time></trkpt><trkpt lat="46.5538656" lon="12.4303375"><ele>863.25</ele><time>2026-04-22T18:52:10.997Z</time></trkpt><trkpt lat="46.5539328" lon="12.4301652"><ele>864.0</ele><time>2026-04-22T18:52:12.004Z</time></trkpt><trkpt lat="46.5540077" lon="12.4300035"><ele>864.0</ele><time>2026-04-22T18:52:13.005Z</time></trkpt><trkpt lat="46.5540958" lon="12.429865"><ele>864.0</ele><time>2026-04-22T18:52:14.006Z</time></trkpt><trkpt lat="46.5542066" lon="12.4297425"><ele>864.0</ele><time>2026-04-22T18:52:15.002Z</time></trkpt><trkpt lat="46.554344" lon="12.4296307"><ele>864.0</ele><time>2026-04-22T18:52:16.007Z</time></trkpt><trkpt lat="46.5544876" lon="12.4295193"><ele>864.3333333333333</ele><time>2026-04-22T18:52:17.005Z</time></trkpt><trkpt lat="46.5546336" lon="12.4293967"><ele>864.6666666666666</ele><time>2026-04-22T18:52:18.002Z</time></trkpt><trkpt lat="46.5547817" lon="12.429275"><ele>865.0</ele><time>2026-04-22T18:52:19.007Z</time></trkpt><trkpt lat="46.5549258" lon="12.4291528"><ele>865.0</ele><time>2026-04-22T18:52:20.008Z</time></trkpt><trkpt lat="46.5550806" lon="12.4290408"><ele>865.0</ele><time>2026-04-22T18:52:21.007Z</time></trkpt><trkpt lat="46.5552295" lon="12.4289154"><ele>865.0</ele><time>2026-04-22T18:52:22.007Z</time></trkpt><trkpt lat="46.5553834" lon="12.4287959"><ele>864.3333333333333</ele><time>2026-04-22T18:52:23.008Z</time></trkpt><trkpt lat="46.5555438" lon="12.4286888"><ele>863.6666666666667</ele><time>2026-04-22T18:52:24.007Z</time></trkpt><trkpt lat="46.5557158" lon="12.4286047"><ele>863.0</ele><time>2026-04-22T18:52:25.01Z</time></trkpt><trkpt lat="46.5558824" lon="12.4285285"><ele>863.0</ele><time>2026-04-22T18:52:26.008Z</time></trkpt><trkpt lat="46.5560481" lon="12.4284469"><ele>863.0</ele><time>2026-04-22T18:52:27.003Z</time></trkpt><trkpt lat="46.5562202" lon="12.4283601"><ele>863.0</ele><time>2026-04-22T18:52:28.005Z</time></trkpt><trkpt lat="46.5563844" lon="12.4282742"><ele>863.6666666666667</ele><time>2026-04-22T18:52:29.009Z</time></trkpt><trkpt lat="46.5565413" lon="12.4281976"><ele>864.3333333333333</ele><time>2026-04-22T18:52:30.004Z</time></trkpt><trkpt lat="46.5566843" lon="12.4281263"><ele>865.0</ele><time>2026-04-22T18:52:31.013Z</time></trkpt><trkpt lat="46.5568176" lon="12.4280606"><ele>865.0</ele><time>2026-04-22T18:52:32.003Z</time></trkpt><trkpt lat="46.5569484" lon="12.427999"><ele>865.0</ele><time>2026-04-22T18:52:33.005Z</time></trkpt><trkpt lat="46.5570705" lon="12.4279416"><ele>865.0</ele><time>2026-04-22T18:52:34.007Z</time></trkpt><trkpt lat="46.5571923" lon="12.4278608"><ele>865.0</ele><time>2026-04-22T18:52:35.006Z</time></trkpt><trkpt lat="46.5573002" lon="12.4277612"><ele>865.5</ele><time>2026-04-22T18:52:36.007Z</time></trkpt><trkpt lat="46.5573932" lon="12.4276233"><ele>866.0</ele><time>2026-04-22T18:52:37.003Z</time></trkpt><trkpt lat="46.5574721" lon="12.4274494"><ele>866.5</ele><time>2026-04-22T18:52:38.005Z</time></trkpt><trkpt lat="46.5575343" lon="12.4272478"><ele>867.0</ele><time>2026-04-22T18:52:39.012Z</time></trkpt><trkpt lat="46.5575877" lon="12.4270268"><ele>867.6666666666667</ele><time>2026-04-22T18:52:40.002Z</time></trkpt><trkpt lat="46.5576366" lon="12.4267981"><ele>868.3333333333334</ele><time>2026-04-22T18:52:41.004Z</time></trkpt><trkpt lat="46.5576893" lon="12.4265617"><ele>869.0</ele><time>2026-04-22T18:52:42.001Z</time></trkpt><trkpt lat="46.557738" lon="12.4263188"><ele>868.3333333333334</ele><time>2026-04-22T18:52:43.002Z</time></trkpt><trkpt lat="46.5577857" lon="12.4260755"><ele>867.6666666666667</ele><time>2026-04-22T18:52:44.002Z</time></trkpt><trkpt lat="46.5578336" lon="12.4258323"><ele>867.0</ele><time>2026-04-22T18:52:45.001Z</time></trkpt><trkpt lat="46.5578891" lon="12.4255887"><ele>870.3333333333333</ele><time>2026-04-22T18:52:46.004Z</time></trkpt><trkpt lat="46.557941" lon="12.4253453"><ele>873.6666666666666</ele><time>2026-04-22T18:52:47.002Z</time></trkpt><trkpt lat="46.5579911" lon="12.425105"><ele>877.0</ele><time>2026-04-22T18:52:48.005Z</time></trkpt><trkpt lat="46.5580478" lon="12.4248688"><ele>875.6666666666666</ele><time>2026-04-22T18:52:49.012Z</time></trkpt><trkpt lat="46.5581051" lon="12.4246236"><ele>874.3333333333333</ele><time>2026-04-22T18:52:50.007Z</time></trkpt><trkpt lat="46.5581523" lon="12.4243826"><ele>873.0</ele><time>2026-04-22T18:52:51.002Z</time></trkpt><trkpt lat="46.5582031" lon="12.4241508"><ele>873.0</ele><time>2026-04-22T18:52:52.004Z</time></trkpt><trkpt lat="46.55828" lon="12.4239257"><ele>873.0</ele><time>2026-04-22T18:52:53.005Z</time></trkpt><trkpt lat="46.5583802" lon="12.4237148"><ele>873.0</ele><time>2026-04-22T18:52:54.014Z</time></trkpt><trkpt lat="46.5585028" lon="12.4235022"><ele>874.0</ele><time>2026-04-22T18:52:55.004Z</time></trkpt><trkpt lat="46.5586309" lon="12.4232872"><ele>875.0</ele><time>2026-04-22T18:52:55.998Z</time></trkpt><trkpt lat="46.5587527" lon="12.4230819"><ele>876.0</ele><time>2026-04-22T18:52:57.001Z</time></trkpt><trkpt lat="46.5588738" lon="12.4228686"><ele>876.0</ele><time>2026-04-22T18:52:58.007Z</time></trkpt><trkpt lat="46.5589945" lon="12.4226579"><ele>876.0</ele><time>2026-04-22T18:52:59.007Z</time></trkpt><trkpt lat="46.559112" lon="12.4224493"><ele>876.0</ele><time>2026-04-22T18:53:00.007Z</time></trkpt><trkpt lat="46.5592218" lon="12.4222597"><ele>877.0</ele><time>2026-04-22T18:53:01.007Z</time></trkpt><trkpt lat="46.5593295" lon="12.4220792"><ele>878.0</ele><time>2026-04-22T18:53:02.009Z</time></trkpt><trkpt lat="46.5594333" lon="12.4219057"><ele>879.0</ele><time>2026-04-22T18:53:03.001Z</time></trkpt><trkpt lat="46.5595408" lon="12.4217374"><ele>879.0</ele><time>2026-04-22T18:53:04.014Z</time></trkpt><trkpt lat="46.5596525" lon="12.4215821"><ele>879.0</ele><time>2026-04-22T18:53:05.007Z</time></trkpt><trkpt lat="46.5597752" lon="12.421431"><ele>879.0</ele><time>2026-04-22T18:53:05.998Z</time></trkpt><trkpt lat="46.5599074" lon="12.4212711"><ele>876.3333333333333</ele><time>2026-04-22T18:53:07.009Z</time></trkpt><trkpt lat="46.560036" lon="12.4210959"><ele>873.6666666666666</ele><time>2026-04-22T18:53:08.002Z</time></trkpt><trkpt lat="46.5601614" lon="12.4209025"><ele>871.0</ele><time>2026-04-22T18:53:09.012Z</time></trkpt><trkpt lat="46.5602672" lon="12.420699"><ele>871.0</ele><time>2026-04-22T18:53:10.002Z</time></trkpt><trkpt lat="46.5603622" lon="12.4204997"><ele>871.0</ele><time>2026-04-22T18:53:11.001Z</time></trkpt><trkpt lat="46.5604432" lon="12.4203113"><ele>871.0</ele><time>2026-04-22T18:53:12.005Z</time></trkpt><trkpt lat="46.5605329" lon="12.4201213"><ele>872.3333333333333</ele><time>2026-04-22T18:53:13.005Z</time></trkpt><trkpt lat="46.5606468" lon="12.4199497"><ele>873.6666666666667</ele><time>2026-04-22T18:53:14.016Z</time></trkpt><trkpt lat="46.560766" lon="12.4197798"><ele>875.0</ele><time>2026-04-22T18:53:15.004Z</time></trkpt><trkpt lat="46.5609015" lon="12.4196082"><ele>874.3333333333334</ele><time>2026-04-22T18:53:15.997Z</time></trkpt><trkpt lat="46.5610429" lon="12.4194378"><ele>873.6666666666667</ele><time>2026-04-22T18:53:17.004Z</time></trkpt><trkpt lat="46.5611883" lon="12.4192551"><ele>873.0</ele><time>2026-04-22T18:53:18.006Z</time></trkpt><trkpt lat="46.5613255" lon="12.4190771"><ele>873.0</ele><time>2026-04-22T18:53:19.005Z</time></trkpt><trkpt lat="46.5614606" lon="12.4188987"><ele>873.0</ele><time>2026-04-22T18:53:20.001Z</time></trkpt><trkpt lat="46.5615869" lon="12.4187065"><ele>873.0</ele><time>2026-04-22T18:53:21.002Z</time></trkpt><trkpt lat="46.5616942" lon="12.4185"><ele>872.3333333333333</ele><time>2026-04-22T18:53:22.003Z</time></trkpt><trkpt lat="46.5618009" lon="12.418284"><ele>871.6666666666666</ele><time>2026-04-22T18:53:23.009Z</time></trkpt><trkpt lat="46.561889" lon="12.4180497"><ele>871.0</ele><time>2026-04-22T18:53:24.008Z</time></trkpt><trkpt lat="46.5619715" lon="12.4178135"><ele>872.0</ele><time>2026-04-22T18:53:25.017Z</time></trkpt><trkpt lat="46.5620444" lon="12.4175621"><ele>873.0</ele><time>2026-04-22T18:53:26.004Z</time></trkpt><trkpt lat="46.5620954" lon="12.4173067"><ele>874.0</ele><time>2026-04-22T18:53:26.997Z</time></trkpt><trkpt lat="46.5621408" lon="12.4170436"><ele>874.0</ele><time>2026-04-22T18:53:28.007Z</time></trkpt><trkpt lat="46.5621697" lon="12.4167815"><ele>874.0</ele><time>2026-04-22T18:53:29.009Z</time></trkpt><trkpt lat="46.5621985" lon="12.4165173"><ele>874.0</ele><time>2026-04-22T18:53:30.005Z</time></trkpt><trkpt lat="46.5622212" lon="12.4162484"><ele>873.6666666666666</ele><time>2026-04-22T18:53:31.01Z</time></trkpt><trkpt lat="46.5622505" lon="12.4159874"><ele>873.3333333333333</ele><time>2026-04-22T18:53:32.007Z</time></trkpt><trkpt lat="46.5622809" lon="12.4157262"><ele>873.0</ele><time>2026-04-22T18:53:33.011Z</time></trkpt><trkpt lat="46.5623072" lon="12.4154679"><ele>872.3333333333333</ele><time>2026-04-22T18:53:34.008Z</time></trkpt><trkpt lat="46.5623421" lon="12.415214"><ele>871.6666666666666</ele><time>2026-04-22T18:53:35.001Z</time></trkpt><trkpt lat="46.5624034" lon="12.4149874"><ele>871.0</ele><time>2026-04-22T18:53:36.004Z</time></trkpt><trkpt lat="46.5624828" lon="12.4147599"><ele>871.0</ele><time>2026-04-22T18:53:37.011Z</time></trkpt><trkpt lat="46.5625699" lon="12.4145403"><ele>871.0</ele><time>2026-04-22T18:53:38.001Z</time></trkpt><trkpt lat="46.5626651" lon="12.4143255"><ele>871.0</ele><time>2026-04-22T18:53:39.011Z</time></trkpt><trkpt lat="46.5627634" lon="12.4141128"><ele>872.3333333333333</ele><time>2026-04-22T18:53:40Z</time></trkpt><trkpt lat="46.5628648" lon="12.4138957"><ele>873.6666666666667</ele><time>2026-04-22T18:53:41.017Z</time></trkpt><trkpt lat="46.5629651" lon="12.4136769"><ele>875.0</ele><time>2026-04-22T18:53:42.007Z</time></trkpt><trkpt lat="46.5630657" lon="12.4134538"><ele>875.3333333333334</ele><time>2026-04-22T18:53:43.009Z</time></trkpt><trkpt lat="46.5631678" lon="12.4132286"><ele>875.6666666666667</ele><time>2026-04-22T18:53:44.002Z</time></trkpt><trkpt lat="46.5632687" lon="12.4130052"><ele>876.0</ele><time>2026-04-22T18:53:45.002Z</time></trkpt><trkpt lat="46.5633741" lon="12.4127836"><ele>875.3333333333333</ele><time>2026-04-22T18:53:46.013Z</time></trkpt><trkpt lat="46.5634782" lon="12.4125582"><ele>874.6666666666666</ele><time>2026-04-22T18:53:47.011Z</time></trkpt><trkpt lat="46.5635827" lon="12.4123318"><ele>874.0</ele><time>2026-04-22T18:53:48.003Z</time></trkpt><trkpt lat="46.5636895" lon="12.412101"><ele>875.3333333333333</ele><time>2026-04-22T18:53:49.003Z</time></trkpt><trkpt lat="46.5637924" lon="12.41188"><ele>876.6666666666667</ele><time>2026-04-22T18:53:50.007Z</time></trkpt><trkpt lat="46.5638981" lon="12.4116599"><ele>878.0</ele><time>2026-04-22T18:53:51.009Z</time></trkpt><trkpt lat="46.5640029" lon="12.4114367"><ele>878.3333333333334</ele><time>2026-04-22T18:53:52.009Z</time></trkpt><trkpt lat="46.5641042" lon="12.4112188"><ele>878.6666666666667</ele><time>2026-04-22T18:53:53.006Z</time></trkpt><trkpt lat="46.5642039" lon="12.4109997"><ele>879.0</ele><time>2026-04-22T18:53:54.001Z</time></trkpt><trkpt lat="46.5643116" lon="12.4107819"><ele>879.0</ele><time>2026-04-22T18:53:55.009Z</time></trkpt><trkpt lat="46.5644143" lon="12.4105658"><ele>879.0</ele><time>2026-04-22T18:53:56.003Z</time></trkpt><trkpt lat="46.5645215" lon="12.4103485"><ele>879.0</ele><time>2026-04-22T18:53:57.012Z</time></trkpt><trkpt lat="46.5646287" lon="12.4101351"><ele>880.0</ele><time>2026-04-22T18:53:58.009Z</time></trkpt><trkpt lat="46.5647339" lon="12.4099193"><ele>881.0</ele><time>2026-04-22T18:53:59.005Z</time></trkpt><trkpt lat="46.5648461" lon="12.4097072"><ele>882.0</ele><time>2026-04-22T18:54:00.004Z</time></trkpt><trkpt lat="46.5649597" lon="12.4094972"><ele>882.0</ele><time>2026-04-22T18:54:01.006Z</time></trkpt><trkpt lat="46.5650738" lon="12.4092776"><ele>882.0</ele><time>2026-04-22T18:54:02.004Z</time></trkpt><trkpt lat="46.565191" lon="12.409063"><ele>882.0</ele><time>2026-04-22T18:54:03Z</time></trkpt><trkpt lat="46.5653038" lon="12.4088512"><ele>884.6666666666667</ele><time>2026-04-22T18:54:04.015Z</time></trkpt><trkpt lat="46.5654152" lon="12.4086367"><ele>887.3333333333334</ele><time>2026-04-22T18:54:05.003Z</time></trkpt><trkpt lat="46.5655222" lon="12.4084169"><ele>890.0</ele><time>2026-04-22T18:54:06.008Z</time></trkpt><trkpt lat="46.5656325" lon="12.4082023"><ele>890.0</ele><time>2026-04-22T18:54:07.002Z</time></trkpt><trkpt lat="46.5657435" lon="12.4079962"><ele>890.0</ele><time>2026-04-22T18:54:08.002Z</time></trkpt><trkpt lat="46.5658531" lon="12.4077801"><ele>890.0</ele><time>2026-04-22T18:54:09.004Z</time></trkpt><trkpt lat="46.5659632" lon="12.4075656"><ele>888.6666666666667</ele><time>2026-04-22T18:54:10.002Z</time></trkpt><trkpt lat="46.5660706" lon="12.407353"><ele>887.3333333333333</ele><time>2026-04-22T18:54:11.006Z</time></trkpt><trkpt lat="46.566182" lon="12.4071453"><ele>886.0</ele><time>2026-04-22T18:54:12.006Z</time></trkpt><trkpt lat="46.5662925" lon="12.4069376"><ele>888.0</ele><time>2026-04-22T18:54:13.004Z</time></trkpt><trkpt lat="46.5663976" lon="12.4067231"><ele>890.0</ele><time>2026-04-22T18:54:14.005Z</time></trkpt><trkpt lat="46.5665078" lon="12.4065109"><ele>892.0</ele><time>2026-04-22T18:54:15.01Z</time></trkpt><trkpt lat="46.5666125" lon="12.406296"><ele>892.0</ele><time>2026-04-22T18:54:16.005Z</time></trkpt><trkpt lat="46.5667195" lon="12.4060677"><ele>892.0</ele><time>2026-04-22T18:54:17.004Z</time></trkpt><trkpt lat="46.5668231" lon="12.405833"><ele>892.0</ele><time>2026-04-22T18:54:18.006Z</time></trkpt><trkpt lat="46.5669201" lon="12.4055975"><ele>891.6666666666666</ele><time>2026-04-22T18:54:19.005Z</time></trkpt><trkpt lat="46.5670123" lon="12.4053514"><ele>891.3333333333333</ele><time>2026-04-22T18:54:20.017Z</time></trkpt><trkpt lat="46.567111" lon="12.4051149"><ele>891.0</ele><time>2026-04-22T18:54:21.004Z</time></trkpt><trkpt lat="46.5672084" lon="12.4048784"><ele>892.6666666666667</ele><time>2026-04-22T18:54:22.003Z</time></trkpt><trkpt lat="46.5673001" lon="12.404646"><ele>894.3333333333334</ele><time>2026-04-22T18:54:23.003Z</time></trkpt><trkpt lat="46.5673946" lon="12.4044182"><ele>896.0</ele><time>2026-04-22T18:54:24.003Z</time></trkpt><trkpt lat="46.5674863" lon="12.4041888"><ele>896.0</ele><time>2026-04-22T18:54:25.009Z</time></trkpt><trkpt lat="46.5675783" lon="12.4039612"><ele>896.0</ele><time>2026-04-22T18:54:26.004Z</time></trkpt><trkpt lat="46.5676702" lon="12.4037385"><ele>896.0</ele><time>2026-04-22T18:54:27.014Z</time></trkpt><trkpt lat="46.567757" lon="12.4035083"><ele>894.3333333333334</ele><time>2026-04-22T18:54:28.005Z</time></trkpt><trkpt lat="46.5678514" lon="12.4032738"><ele>892.6666666666667</ele><time>2026-04-22T18:54:29.006Z</time></trkpt><trkpt lat="46.5679448" lon="12.4030501"><ele>891.0</ele><time>2026-04-22T18:54:30.001Z</time></trkpt><trkpt lat="46.5680388" lon="12.4028173"><ele>893.3333333333333</ele><time>2026-04-22T18:54:31.005Z</time></trkpt><trkpt lat="46.5681334" lon="12.4025782"><ele>895.6666666666666</ele><time>2026-04-22T18:54:32.003Z</time></trkpt><trkpt lat="46.5682374" lon="12.4023457"><ele>898.0</ele><time>2026-04-22T18:54:33Z</time></trkpt><trkpt lat="46.5683347" lon="12.4021185"><ele>898.0</ele><time>2026-04-22T18:54:34Z</time></trkpt><trkpt lat="46.5684248" lon="12.4018944"><ele>898.0</ele><time>2026-04-22T18:54:35.001Z</time></trkpt><trkpt lat="46.5685156" lon="12.4016873"><ele>898.0</ele><time>2026-04-22T18:54:36.002Z</time></trkpt><trkpt lat="46.5686198" lon="12.4014868"><ele>899.3333333333333</ele><time>2026-04-22T18:54:37.006Z</time></trkpt><trkpt lat="46.5687383" lon="12.4012845"><ele>900.6666666666667</ele><time>2026-04-22T18:54:38.005Z</time></trkpt><trkpt lat="46.5688649" lon="12.4010989"><ele>902.0</ele><time>2026-04-22T18:54:39.005Z</time></trkpt><trkpt lat="46.5690007" lon="12.4009114"><ele>902.0</ele><time>2026-04-22T18:54:40Z</time></trkpt><trkpt lat="46.5691512" lon="12.4007338"><ele>902.0</ele><time>2026-04-22T18:54:41.005Z</time></trkpt><trkpt lat="46.5692994" lon="12.4005614"><ele>902.0</ele><time>2026-04-22T18:54:42.003Z</time></trkpt><trkpt lat="46.5694548" lon="12.4004025"><ele>902.3333333333334</ele><time>2026-04-22T18:54:43.012Z</time></trkpt><trkpt lat="46.5696154" lon="12.4002554"><ele>902.6666666666667</ele><time>2026-04-22T18:54:44.005Z</time></trkpt><trkpt lat="46.5697802" lon="12.4001044"><ele>903.0</ele><time>2026-04-22T18:54:45.008Z</time></trkpt><trkpt lat="46.5699422" lon="12.3999469"><ele>903.0</ele><time>2026-04-22T18:54:46.002Z</time></trkpt><trkpt lat="46.5701052" lon="12.3997852"><ele>903.0</ele><time>2026-04-22T18:54:47.008Z</time></trkpt><trkpt lat="46.5702608" lon="12.3996264"><ele>903.0</ele><time>2026-04-22T18:54:48.007Z</time></trkpt><trkpt lat="46.5704138" lon="12.3994577"><ele>901.6666666666667</ele><time>2026-04-22T18:54:49.005Z</time></trkpt><trkpt lat="46.5705608" lon="12.3992809"><ele>900.3333333333334</ele><time>2026-04-22T18:54:50.006Z</time></trkpt><trkpt lat="46.5707017" lon="12.3991076"><ele>899.0</ele><time>2026-04-22T18:54:51.007Z</time></trkpt><trkpt lat="46.5708394" lon="12.3989294"><ele>900.0</ele><time>2026-04-22T18:54:52.008Z</time></trkpt><trkpt lat="46.5709732" lon="12.39874"><ele>901.0</ele><time>2026-04-22T18:54:53.008Z</time></trkpt><trkpt lat="46.5711085" lon="12.3985433"><ele>902.0</ele><time>2026-04-22T18:54:54.004Z</time></trkpt><trkpt lat="46.5712438" lon="12.3983497"><ele>902.0</ele><time>2026-04-22T18:54:55Z</time></trkpt><trkpt lat="46.5713783" lon="12.3981582"><ele>902.0</ele><time>2026-04-22T18:54:56.004Z</time></trkpt><trkpt lat="46.5715079" lon="12.3979641"><ele>902.0</ele><time>2026-04-22T18:54:57.008Z</time></trkpt><trkpt lat="46.5716432" lon="12.3977742"><ele>900.6666666666667</ele><time>2026-04-22T18:54:58.001Z</time></trkpt><trkpt lat="46.5717763" lon="12.397579"><ele>899.3333333333333</ele><time>2026-04-22T18:54:59.013Z</time></trkpt><trkpt lat="46.5718993" lon="12.3973756"><ele>898.0</ele><time>2026-04-22T18:55:00.008Z</time></trkpt><trkpt lat="46.5720169" lon="12.3971506"><ele>901.0</ele><time>2026-04-22T18:55:01.009Z</time></trkpt><trkpt lat="46.5721375" lon="12.396926"><ele>904.0</ele><time>2026-04-22T18:55:01.998Z</time></trkpt><trkpt lat="46.5722593" lon="12.3966925"><ele>907.0</ele><time>2026-04-22T18:55:03.009Z</time></trkpt><trkpt lat="46.572375" lon="12.3964661"><ele>904.6666666666666</ele><time>2026-04-22T18:55:04.004Z</time></trkpt><trkpt lat="46.5724858" lon="12.3962445"><ele>902.3333333333333</ele><time>2026-04-22T18:55:05.002Z</time></trkpt><trkpt lat="46.5726009" lon="12.3960113"><ele>900.0</ele><time>2026-04-22T18:55:06.004Z</time></trkpt><trkpt lat="46.5727192" lon="12.3957864"><ele>900.0</ele><time>2026-04-22T18:55:07.008Z</time></trkpt><trkpt lat="46.5728335" lon="12.3955638"><ele>900.0</ele><time>2026-04-22T18:55:08.005Z</time></trkpt><trkpt lat="46.5729482" lon="12.39534"><ele>900.0</ele><time>2026-04-22T18:55:09.005Z</time></trkpt><trkpt lat="46.5730574" lon="12.3951192"><ele>901.0</ele><time>2026-04-22T18:55:10.006Z</time></trkpt><trkpt lat="46.5731724" lon="12.3948968"><ele>902.0</ele><time>2026-04-22T18:55:11Z</time></trkpt><trkpt lat="46.5732841" lon="12.3946792"><ele>903.0</ele><time>2026-04-22T18:55:12Z</time></trkpt><trkpt lat="46.573398" lon="12.3944575"><ele>903.0</ele><time>2026-04-22T18:55:13.008Z</time></trkpt><trkpt lat="46.5735121" lon="12.3942351"><ele>903.0</ele><time>2026-04-22T18:55:14.01Z</time></trkpt><trkpt lat="46.5736221" lon="12.3940171"><ele>903.0</ele><time>2026-04-22T18:55:15.007Z</time></trkpt><trkpt lat="46.5737337" lon="12.3938"><ele>905.0</ele><time>2026-04-22T18:55:16.006Z</time></trkpt><trkpt lat="46.5738449" lon="12.3935878"><ele>907.0</ele><time>2026-04-22T18:55:16.997Z</time></trkpt><trkpt lat="46.5739522" lon="12.393374"><ele>909.0</ele><time>2026-04-22T18:55:18.006Z</time></trkpt><trkpt lat="46.574058" lon="12.3931634"><ele>907.6666666666667</ele><time>2026-04-22T18:55:19.005Z</time></trkpt><trkpt lat="46.5741634" lon="12.3929556"><ele>906.3333333333334</ele><time>2026-04-22T18:55:20.015Z</time></trkpt><trkpt lat="46.5742681" lon="12.392748"><ele>905.0</ele><time>2026-04-22T18:55:21.009Z</time></trkpt><trkpt lat="46.5743693" lon="12.3925397"><ele>905.0</ele><time>2026-04-22T18:55:22.003Z</time></trkpt><trkpt lat="46.5744763" lon="12.3923343"><ele>905.0</ele><time>2026-04-22T18:55:23.005Z</time></trkpt><trkpt lat="46.5745805" lon="12.3921277"><ele>905.0</ele><time>2026-04-22T18:55:24.005Z</time></trkpt><trkpt lat="46.5746829" lon="12.3919199"><ele>907.0</ele><time>2026-04-22T18:55:25.005Z</time></trkpt><trkpt lat="46.5747874" lon="12.3917203"><ele>909.0</ele><time>2026-04-22T18:55:26.004Z</time></trkpt><trkpt lat="46.5748865" lon="12.391523"><ele>911.0</ele><time>2026-04-22T18:55:27.003Z</time></trkpt><trkpt lat="46.5749805" lon="12.3913223"><ele>911.0</ele><time>2026-04-22T18:55:28.005Z</time></trkpt><trkpt lat="46.5750652" lon="12.3911286"><ele>911.0</ele><time>2026-04-22T18:55:29.005Z</time></trkpt><trkpt lat="46.5751392" lon="12.3909343"><ele>911.0</ele><time>2026-04-22T18:55:30.001Z</time></trkpt><trkpt lat="46.5751996" lon="12.3907285"><ele>911.0</ele><time>2026-04-22T18:55:31.002Z</time></trkpt><trkpt lat="46.5752505" lon="12.3905136"><ele>911.0</ele><time>2026-04-22T18:55:32.006Z</time></trkpt><trkpt lat="46.5752849" lon="12.3902832"><ele>911.0</ele><time>2026-04-22T18:55:33.004Z</time></trkpt><trkpt lat="46.5752954" lon="12.3900441"><ele>911.0</ele><time>2026-04-22T18:55:34.009Z</time></trkpt><trkpt lat="46.5752924" lon="12.3898045"><ele>911.0</ele><time>2026-04-22T18:55:35.005Z</time></trkpt><trkpt lat="46.5752923" lon="12.3895699"><ele>911.0</ele><time>2026-04-22T18:55:36.002Z</time></trkpt><trkpt lat="46.5752908" lon="12.3893347"><ele>913.3333333333334</ele><time>2026-04-22T18:55:37.004Z</time></trkpt><trkpt lat="46.5752903" lon="12.389093"><ele>915.6666666666667</ele><time>2026-04-22T18:55:38.005Z</time></trkpt><trkpt lat="46.5752852" lon="12.3888524"><ele>918.0</ele><time>2026-04-22T18:55:39.004Z</time></trkpt><trkpt lat="46.5752882" lon="12.3886155"><ele>918.0</ele><time>2026-04-22T18:55:39.999Z</time></trkpt><trkpt lat="46.575291" lon="12.3883922"><ele>918.0</ele><time>2026-04-22T18:55:41.015Z</time></trkpt><trkpt lat="46.5753002" lon="12.3881838"><ele>918.0</ele><time>2026-04-22T18:55:42.007Z</time></trkpt><trkpt lat="46.5753025" lon="12.3879717"><ele>918.0</ele><time>2026-04-22T18:55:43.006Z</time></trkpt><trkpt lat="46.5753176" lon="12.3877698"><ele>918.75</ele><time>2026-04-22T18:55:44.006Z</time></trkpt><trkpt lat="46.5753489" lon="12.3875804"><ele>919.5</ele><time>2026-04-22T18:55:45.003Z</time></trkpt><trkpt lat="46.5753888" lon="12.3874175"><ele>920.25</ele><time>2026-04-22T18:55:46.002Z</time></trkpt><trkpt lat="46.5754399" lon="12.3872446"><ele>921.0</ele><time>2026-04-22T18:55:47.003Z</time></trkpt><trkpt lat="46.5755066" lon="12.3870818"><ele>921.4</ele><time>2026-04-22T18:55:48.006Z</time></trkpt><trkpt lat="46.5755826" lon="12.3869502"><ele>921.8</ele><time>2026-04-22T18:55:48.999Z</time></trkpt><trkpt lat="46.5756575" lon="12.3868331"><ele>922.1999999999999</ele><time>2026-04-22T18:55:50Z</time></trkpt><trkpt lat="46.5757283" lon="12.3867312"><ele>922.5999999999999</ele><time>2026-04-22T18:55:51.005Z</time></trkpt><trkpt lat="46.5757965" lon="12.3866484"><ele>923.0</ele><time>2026-04-22T18:55:52.005Z</time></trkpt><trkpt lat="46.5758574" lon="12.3865764"><ele>923.0</ele><time>2026-04-22T18:55:53.014Z</time></trkpt><trkpt lat="46.575912" lon="12.3865212"><ele>923.0</ele><time>2026-04-22T18:55:53.998Z</time></trkpt><trkpt lat="46.5760104" lon="12.3865108"><ele>923.0</ele><time>2026-04-22T18:55:56.001Z</time></trkpt><trkpt lat="46.5761333" lon="12.3866196"><ele>923.0</ele><time>2026-04-22T18:55:58.006Z</time></trkpt><trkpt lat="46.5762083" lon="12.386689"><ele>923.0</ele><time>2026-04-22T18:55:59.004Z</time></trkpt><trkpt lat="46.5762881" lon="12.3867618"><ele>924.8</ele><time>2026-04-22T18:56:00.004Z</time></trkpt><trkpt lat="46.5763735" lon="12.386826"><ele>926.5999999999999</ele><time>2026-04-22T18:56:01.002Z</time></trkpt><trkpt lat="46.5764576" lon="12.3868823"><ele>928.4000000000001</ele><time>2026-04-22T18:56:02.006Z</time></trkpt><trkpt lat="46.576544" lon="12.3869545"><ele>930.2</ele><time>2026-04-22T18:56:03.006Z</time></trkpt><trkpt lat="46.5766333" lon="12.3870163"><ele>932.0</ele><time>2026-04-22T18:56:04.01Z</time></trkpt><trkpt lat="46.5767198" lon="12.387096"><ele>932.0000000000001</ele><time>2026-04-22T18:56:05Z</time></trkpt><trkpt lat="46.5767946" lon="12.3871597"><ele>932.0</ele><time>2026-04-22T18:56:06.012Z</time></trkpt><trkpt lat="46.5768541" lon="12.3872099"><ele>932.0</ele><time>2026-04-22T18:56:07.004Z</time></trkpt><trkpt lat="46.5769563" lon="12.3873104"><ele>932.0</ele><time>2026-04-22T18:56:09.005Z</time></trkpt><trkpt lat="46.5770236" lon="12.3874007"><ele>932.0000000000001</ele><time>2026-04-22T18:56:11.015Z</time></trkpt><trkpt lat="46.5770263" lon="12.3874927"><ele>932.0</ele><time>2026-04-22T18:56:13.006Z</time></trkpt><trkpt lat="46.5769753" lon="12.3875906"><ele>932.5000000000001</ele><time>2026-04-22T18:56:15.002Z</time></trkpt><trkpt lat="46.5769268" lon="12.3876626"><ele>933.0</ele><time>2026-04-22T18:56:18.002Z</time></trkpt><trkpt lat="46.5769022" lon="12.3875708"><ele>933.5</ele><time>2026-04-22T18:56:24.004Z</time></trkpt><trkpt lat="46.5769162" lon="12.3874774"><ele>934.0</ele><time>2026-04-22T18:56:25.995Z</time></trkpt><trkpt lat="46.5769698" lon="12.3874002"><ele>934.5000000000001</ele><time>2026-04-22T18:56:27.995Z</time></trkpt><trkpt lat="46.577048" lon="12.3873078"><ele>935.0</ele><time>2026-04-22T18:56:29.993Z</time></trkpt><trkpt lat="46.5771549" lon="12.3872498"><ele>936.1666666666667</ele><time>2026-04-22T18:56:31.993Z</time></trkpt><trkpt lat="46.5772251" lon="12.3871918"><ele>937.3333333333334</ele><time>2026-04-22T18:56:33.994Z</time></trkpt><trkpt lat="46.5772523" lon="12.3870543"><ele>938.5</ele><time>2026-04-22T18:56:37.999Z</time></trkpt><trkpt lat="46.5772454" lon="12.3869627"><ele>939.6666666666667</ele><time>2026-04-22T18:56:40.997Z</time></trkpt><trkpt lat="46.5772192" lon="12.3868484"><ele>940.8333333333334</ele><time>2026-04-22T18:56:42.993Z</time></trkpt><trkpt lat="46.5771275" lon="12.3867474"><ele>942.0</ele><time>2026-04-22T18:56:44.994Z</time></trkpt><trkpt lat="46.5770382" lon="12.3867628"><ele>942.0</ele><time>2026-04-22T18:56:49.995Z</time></trkpt><trkpt lat="46.5769537" lon="12.3867965"><ele>932.0</ele><time>2026-04-22T18:56:54.998Z</time></trkpt><trkpt lat="46.5769558" lon="12.3869035"><ele>932.0</ele><time>2026-04-22T18:57:00.994Z</time></trkpt><trkpt lat="46.5769864" lon="12.3870694"><ele>932.0</ele><time>2026-04-22T18:57:01.991Z</time></trkpt></trkseg></trk></gpx>